<?xml version="1.0" encoding="UTF-8" standalone="no" ?>
<gpx xmlns="http://www.topografix.com/GPX/1/1" xmlns:xsi="http://www.w3.org/2001/XMLSchema-instance" xsi:schemaLocation="http://www.topografix.com/GPX/1/1 http://www.topografix.com/GPX/1/1/gpx.xsd" version="1.1" creator="VisuGPX - https://www.visugpx.com">
  <metadata>
    <name>Launaguet Mirepoix / tarn</name>
  </metadata>
  <trk>
    <name><![CDATA[Launaguet Mirepoix / tarn]]></name>
    <extensions>
      <line xmlns="http://www.topografix.com/GPX/gpx_style/0/2">
        <color>0000FF</color>
        <width>4</width>
      </line>
    </extensions>
    <trkseg>
      <trkpt lat="43.65728" lon="1.45318">
        <ele>135.369017</ele>
        <time>2022-07-13T14:20:13.103Z</time>
      </trkpt>
      <trkpt lat="43.6575" lon="1.45288">
        <ele>135.369017</ele>
        <time>2022-07-13T14:20:18.050Z</time>
      </trkpt>
      <trkpt lat="43.65758" lon="1.45279">
        <ele>135.369017</ele>
        <time>2022-07-13T14:20:19.756Z</time>
      </trkpt>
      <trkpt lat="43.65822" lon="1.45363">
        <ele>135.447162</ele>
        <time>2022-07-13T14:20:33.944Z</time>
      </trkpt>
      <trkpt lat="43.65907" lon="1.45239">
        <ele>135.686944</ele>
        <time>2022-07-13T14:20:53.687Z</time>
      </trkpt>
      <trkpt lat="43.65946" lon="1.45284">
        <ele>135.774059</ele>
        <time>2022-07-13T14:21:01.855Z</time>
      </trkpt>
      <trkpt lat="43.65946" lon="1.45258">
        <ele>135.803878</ele>
        <time>2022-07-13T14:21:04.838Z</time>
      </trkpt>
      <trkpt lat="43.65949" lon="1.45209">
        <ele>135.860992</ele>
        <time>2022-07-13T14:21:10.549Z</time>
      </trkpt>
      <trkpt lat="43.66015" lon="1.45207">
        <ele>135.965639</ele>
        <time>2022-07-13T14:21:21.035Z</time>
      </trkpt>
      <trkpt lat="43.66095" lon="1.45207">
        <ele>135.814177</ele>
        <time>2022-07-13T14:21:33.860Z</time>
      </trkpt>
      <trkpt lat="43.661" lon="1.45201">
        <ele>135.787871</ele>
        <time>2022-07-13T14:21:35.021Z</time>
      </trkpt>
      <trkpt lat="43.66122" lon="1.452">
        <ele>135.711422</ele>
        <time>2022-07-13T14:21:38.402Z</time>
      </trkpt>
      <trkpt lat="43.66138" lon="1.45209">
        <ele>135.650711</ele>
        <time>2022-07-13T14:21:40.995Z</time>
      </trkpt>
      <trkpt lat="43.66158" lon="1.45237">
        <ele>135.55089</ele>
        <time>2022-07-13T14:21:45.231Z</time>
      </trkpt>
      <trkpt lat="43.66183" lon="1.45279">
        <ele>135.413246</ele>
        <time>2022-07-13T14:21:51.097Z</time>
      </trkpt>
      <trkpt lat="43.66246" lon="1.45257">
        <ele>134.971518</ele>
        <time>2022-07-13T14:22:06.495Z</time>
      </trkpt>
      <trkpt lat="43.6628" lon="1.45255">
        <ele>134.715581</ele>
        <time>2022-07-13T14:22:14.601Z</time>
      </trkpt>
      <trkpt lat="43.66286" lon="1.45243">
        <ele>134.638806</ele>
        <time>2022-07-13T14:22:17.057Z</time>
      </trkpt>
      <trkpt lat="43.66308" lon="1.45223">
        <ele>134.443123</ele>
        <time>2022-07-13T14:22:23.165Z</time>
      </trkpt>
      <trkpt lat="43.66316" lon="1.45204">
        <ele>134.324412</ele>
        <time>2022-07-13T14:22:26.959Z</time>
      </trkpt>
      <trkpt lat="43.66324" lon="1.4519">
        <ele>134.225739</ele>
        <time>2022-07-13T14:22:29.969Z</time>
      </trkpt>
      <trkpt lat="43.6635" lon="1.45167">
        <ele>134.010139</ele>
        <time>2022-07-13T14:22:37.218Z</time>
      </trkpt>
      <trkpt lat="43.66366" lon="1.4512">
        <ele>133.840784</ele>
        <time>2022-07-13T14:22:46.109Z</time>
      </trkpt>
      <trkpt lat="43.66378" lon="1.45104">
        <ele>133.765029</ele>
        <time>2022-07-13T14:22:50.096Z</time>
      </trkpt>
      <trkpt lat="43.66394" lon="1.45052">
        <ele>133.57929</ele>
        <time>2022-07-13T14:22:59.907Z</time>
      </trkpt>
      <trkpt lat="43.66397" lon="1.45014">
        <ele>133.452941</ele>
        <time>2022-07-13T14:23:06.556Z</time>
      </trkpt>
      <trkpt lat="43.6641" lon="1.45004">
        <ele>133.383413</ele>
        <time>2022-07-13T14:23:10.212Z</time>
      </trkpt>
      <trkpt lat="43.66437" lon="1.44919">
        <ele>133.011758</ele>
        <time>2022-07-13T14:23:26.245Z</time>
      </trkpt>
      <trkpt lat="43.66467" lon="1.44826">
        <ele>132.509546</ele>
        <time>2022-07-13T14:23:43.786Z</time>
      </trkpt>
      <trkpt lat="43.66515" lon="1.44708">
        <ele>131.869073</ele>
        <time>2022-07-13T14:24:06.947Z</time>
      </trkpt>
      <trkpt lat="43.66551" lon="1.44731">
        <ele>131.644022</ele>
        <time>2022-07-13T14:24:16.464Z</time>
      </trkpt>
      <trkpt lat="43.66638" lon="1.44853">
        <ele>130.967538</ele>
        <time>2022-07-13T14:24:46.017Z</time>
      </trkpt>
      <trkpt lat="43.66671" lon="1.44859">
        <ele>130.891664</ele>
        <time>2022-07-13T14:24:54.121Z</time>
      </trkpt>
      <trkpt lat="43.66693" lon="1.44852">
        <ele>130.842762</ele>
        <time>2022-07-13T14:24:59.349Z</time>
      </trkpt>
      <trkpt lat="43.66733" lon="1.44817">
        <ele>130.736069</ele>
        <time>2022-07-13T14:25:10.742Z</time>
      </trkpt>
      <trkpt lat="43.66754" lon="1.44825">
        <ele>130.686976</ele>
        <time>2022-07-13T14:25:15.990Z</time>
      </trkpt>
      <trkpt lat="43.66762" lon="1.44867">
        <ele>130.61649</ele>
        <time>2022-07-13T14:25:23.522Z</time>
      </trkpt>
      <trkpt lat="43.66771" lon="1.44882">
        <ele>130.585146</ele>
        <time>2022-07-13T14:25:26.883Z</time>
      </trkpt>
      <trkpt lat="43.66801" lon="1.44905">
        <ele>130.577604</ele>
        <time>2022-07-13T14:25:35.141Z</time>
      </trkpt>
      <trkpt lat="43.66836" lon="1.4492">
        <ele>130.580335</ele>
        <time>2022-07-13T14:25:44.030Z</time>
      </trkpt>
      <trkpt lat="43.66905" lon="1.44936">
        <ele>130.585474</ele>
        <time>2022-07-13T14:26:00.749Z</time>
      </trkpt>
      <trkpt lat="43.6693" lon="1.44953">
        <ele>130.587531</ele>
        <time>2022-07-13T14:26:07.441Z</time>
      </trkpt>
      <trkpt lat="43.66953" lon="1.45016">
        <ele>130.80664</ele>
        <time>2022-07-13T14:26:19.864Z</time>
      </trkpt>
      <trkpt lat="43.67005" lon="1.4512">
        <ele>131.364378</ele>
        <time>2022-07-13T14:26:42.458Z</time>
      </trkpt>
      <trkpt lat="43.6702" lon="1.4516">
        <ele>131.560313</ele>
        <time>2022-07-13T14:26:50.539Z</time>
      </trkpt>
      <trkpt lat="43.67068" lon="1.45137">
        <ele>131.986104</ele>
        <time>2022-07-13T14:27:03.274Z</time>
      </trkpt>
      <trkpt lat="43.67083" lon="1.45164">
        <ele>132.226398</ele>
        <time>2022-07-13T14:27:09.503Z</time>
      </trkpt>
      <trkpt lat="43.67106" lon="1.45149">
        <ele>132.480269</ele>
        <time>2022-07-13T14:27:15.966Z</time>
      </trkpt>
      <trkpt lat="43.67109" lon="1.45152">
        <ele>132.514881</ele>
        <time>2022-07-13T14:27:16.779Z</time>
      </trkpt>
      <trkpt lat="43.67143" lon="1.45133">
        <ele>132.87842</ele>
        <time>2022-07-13T14:27:23.385Z</time>
      </trkpt>
      <trkpt lat="43.67155" lon="1.45156">
        <ele>133.076856</ele>
        <time>2022-07-13T14:27:26.685Z</time>
      </trkpt>
      <trkpt lat="43.67195" lon="1.45131">
        <ele>133.449344</ele>
        <time>2022-07-13T14:27:34.095Z</time>
      </trkpt>
      <trkpt lat="43.67195" lon="1.45124">
        <ele>133.454755</ele>
        <time>2022-07-13T14:27:35.179Z</time>
      </trkpt>
      <trkpt lat="43.67209" lon="1.45112">
        <ele>133.471668</ele>
        <time>2022-07-13T14:27:37.756Z</time>
      </trkpt>
      <trkpt lat="43.67219" lon="1.45118">
        <ele>133.483481</ele>
        <time>2022-07-13T14:27:39.441Z</time>
      </trkpt>
      <trkpt lat="43.67224" lon="1.45113">
        <ele>133.490501</ele>
        <time>2022-07-13T14:27:40.583Z</time>
      </trkpt>
      <trkpt lat="43.67225" lon="1.45102">
        <ele>133.498762</ele>
        <time>2022-07-13T14:27:42.032Z</time>
      </trkpt>
      <trkpt lat="43.67245" lon="1.45087">
        <ele>133.522086</ele>
        <time>2022-07-13T14:27:45.460Z</time>
      </trkpt>
      <trkpt lat="43.67247" lon="1.45094">
        <ele>133.528034</ele>
        <time>2022-07-13T14:27:46.457Z</time>
      </trkpt>
      <trkpt lat="43.67335" lon="1.45023">
        <ele>133.624954</ele>
        <time>2022-07-13T14:28:02.641Z</time>
      </trkpt>
      <trkpt lat="43.67367" lon="1.45034">
        <ele>133.551012</ele>
        <time>2022-07-13T14:28:07.534Z</time>
      </trkpt>
      <trkpt lat="43.67386" lon="1.45087">
        <ele>133.455379</ele>
        <time>2022-07-13T14:28:13.952Z</time>
      </trkpt>
      <trkpt lat="43.67389" lon="1.45096">
        <ele>133.438211</ele>
        <time>2022-07-13T14:28:15.128Z</time>
      </trkpt>
      <trkpt lat="43.67395" lon="1.45092">
        <ele>133.424741</ele>
        <time>2022-07-13T14:28:16.040Z</time>
      </trkpt>
      <trkpt lat="43.67506" lon="1.45009">
        <ele>133.34451</ele>
        <time>2022-07-13T14:28:36.296Z</time>
      </trkpt>
      <trkpt lat="43.67545" lon="1.45105">
        <ele>133.584104</ele>
        <time>2022-07-13T14:28:49.319Z</time>
      </trkpt>
      <trkpt lat="43.67609" lon="1.45273">
        <ele>133.991813</ele>
        <time>2022-07-13T14:29:12.047Z</time>
      </trkpt>
      <trkpt lat="43.67649" lon="1.45274">
        <ele>134.108355</ele>
        <time>2022-07-13T14:29:18.400Z</time>
      </trkpt>
      <trkpt lat="43.67675" lon="1.45274">
        <ele>134.185443</ele>
        <time>2022-07-13T14:29:22.596Z</time>
      </trkpt>
      <trkpt lat="43.67691" lon="1.45264">
        <ele>134.236839</ele>
        <time>2022-07-13T14:29:25.390Z</time>
      </trkpt>
      <trkpt lat="43.67715" lon="1.45254">
        <ele>134.315483</ele>
        <time>2022-07-13T14:29:29.558Z</time>
      </trkpt>
      <trkpt lat="43.67723" lon="1.45226">
        <ele>134.399218</ele>
        <time>2022-07-13T14:29:33.099Z</time>
      </trkpt>
      <trkpt lat="43.67732" lon="1.45206">
        <ele>134.461162</ele>
        <time>2022-07-13T14:29:35.884Z</time>
      </trkpt>
      <trkpt lat="43.67737" lon="1.45206">
        <ele>134.480196</ele>
        <time>2022-07-13T14:29:36.636Z</time>
      </trkpt>
      <trkpt lat="43.67739" lon="1.45206">
        <ele>134.488923</ele>
        <time>2022-07-13T14:29:36.995Z</time>
      </trkpt>
      <trkpt lat="43.67762" lon="1.45217">
        <ele>134.580236</ele>
        <time>2022-07-13T14:29:42.939Z</time>
      </trkpt>
      <trkpt lat="43.67839" lon="1.45297">
        <ele>134.946194</ele>
        <time>2022-07-13T14:30:06.528Z</time>
      </trkpt>
      <trkpt lat="43.67838" lon="1.45307">
        <ele>134.972046</ele>
        <time>2022-07-13T14:30:07.936Z</time>
      </trkpt>
      <trkpt lat="43.67847" lon="1.45321">
        <ele>135.068442</ele>
        <time>2022-07-13T14:30:10.589Z</time>
      </trkpt>
      <trkpt lat="43.6786" lon="1.45341">
        <ele>135.226039</ele>
        <time>2022-07-13T14:30:14.693Z</time>
      </trkpt>
      <trkpt lat="43.67923" lon="1.45325">
        <ele>135.734928</ele>
        <time>2022-07-13T14:30:28.083Z</time>
      </trkpt>
      <trkpt lat="43.67947" lon="1.45372">
        <ele>136.066129</ele>
        <time>2022-07-13T14:30:36.759Z</time>
      </trkpt>
      <trkpt lat="43.67964" lon="1.45357">
        <ele>136.234328</ele>
        <time>2022-07-13T14:30:40.150Z</time>
      </trkpt>
      <trkpt lat="43.67971" lon="1.45361">
        <ele>136.290229</ele>
        <time>2022-07-13T14:30:41.327Z</time>
      </trkpt>
      <trkpt lat="43.67976" lon="1.45357">
        <ele>136.341228</ele>
        <time>2022-07-13T14:30:42.381Z</time>
      </trkpt>
      <trkpt lat="43.67976" lon="1.45347">
        <ele>136.395588</ele>
        <time>2022-07-13T14:30:43.445Z</time>
      </trkpt>
      <trkpt lat="43.68013" lon="1.45327">
        <ele>136.507393</ele>
        <time>2022-07-13T14:30:49.717Z</time>
      </trkpt>
      <trkpt lat="43.68037" lon="1.45309">
        <ele>136.575345</ele>
        <time>2022-07-13T14:30:54.138Z</time>
      </trkpt>
      <trkpt lat="43.68059" lon="1.45289">
        <ele>136.640427</ele>
        <time>2022-07-13T14:30:58.375Z</time>
      </trkpt>
      <trkpt lat="43.68068" lon="1.45281">
        <ele>136.665875</ele>
        <time>2022-07-13T14:31:00.021Z</time>
      </trkpt>
      <trkpt lat="43.68089" lon="1.45262">
        <ele>136.728721</ele>
        <time>2022-07-13T14:31:04.088Z</time>
      </trkpt>
      <trkpt lat="43.68161" lon="1.45195">
        <ele>136.935528</ele>
        <time>2022-07-13T14:31:17.945Z</time>
      </trkpt>
      <trkpt lat="43.68196" lon="1.45338">
        <ele>137.181807</ele>
        <time>2022-07-13T14:31:35.436Z</time>
      </trkpt>
      <trkpt lat="43.68219" lon="1.45412">
        <ele>137.495964</ele>
        <time>2022-07-13T14:31:45.100Z</time>
      </trkpt>
      <trkpt lat="43.6826" lon="1.45554">
        <ele>138.743504</ele>
        <time>2022-07-13T14:32:12.701Z</time>
      </trkpt>
      <trkpt lat="43.68279" lon="1.45666">
        <ele>140.413033</ele>
        <time>2022-07-13T14:32:33.803Z</time>
      </trkpt>
      <trkpt lat="43.6827" lon="1.45896">
        <ele>145.893485</ele>
        <time>2022-07-13T14:33:18.658Z</time>
      </trkpt>
      <trkpt lat="43.68263" lon="1.45995">
        <ele>148.364841</ele>
        <time>2022-07-13T14:33:38.476Z</time>
      </trkpt>
      <trkpt lat="43.68278" lon="1.46046">
        <ele>149.716151</ele>
        <time>2022-07-13T14:33:48.960Z</time>
      </trkpt>
      <trkpt lat="43.6828" lon="1.46078">
        <ele>150.521721</ele>
        <time>2022-07-13T14:33:55.364Z</time>
      </trkpt>
      <trkpt lat="43.68283" lon="1.46127">
        <ele>151.450672</ele>
        <time>2022-07-13T14:34:04.548Z</time>
      </trkpt>
      <trkpt lat="43.6829" lon="1.46131">
        <ele>151.530981</ele>
        <time>2022-07-13T14:34:06.345Z</time>
      </trkpt>
      <trkpt lat="43.68352" lon="1.46233">
        <ele>152.556187</ele>
        <time>2022-07-13T14:34:30.536Z</time>
      </trkpt>
      <trkpt lat="43.68373" lon="1.46259">
        <ele>152.85972</ele>
        <time>2022-07-13T14:34:37.340Z</time>
      </trkpt>
      <trkpt lat="43.68432" lon="1.46263">
        <ele>153.4041</ele>
        <time>2022-07-13T14:34:51.566Z</time>
      </trkpt>
      <trkpt lat="43.68449" lon="1.46239">
        <ele>153.567389</ele>
        <time>2022-07-13T14:34:57.499Z</time>
      </trkpt>
      <trkpt lat="43.68462" lon="1.46235">
        <ele>153.660548</ele>
        <time>2022-07-13T14:35:00.870Z</time>
      </trkpt>
      <trkpt lat="43.68481" lon="1.46264">
        <ele>153.853906</ele>
        <time>2022-07-13T14:35:07.892Z</time>
      </trkpt>
      <trkpt lat="43.68494" lon="1.46272">
        <ele>153.949507</ele>
        <time>2022-07-13T14:35:11.414Z</time>
      </trkpt>
      <trkpt lat="43.68548" lon="1.46267">
        <ele>154.317122</ele>
        <time>2022-07-13T14:35:24.877Z</time>
      </trkpt>
      <trkpt lat="43.68555" lon="1.4627">
        <ele>154.366483</ele>
        <time>2022-07-13T14:35:26.676Z</time>
      </trkpt>
      <trkpt lat="43.68574" lon="1.46263">
        <ele>154.599784</ele>
        <time>2022-07-13T14:35:31.832Z</time>
      </trkpt>
      <trkpt lat="43.68605" lon="1.46279">
        <ele>155.418304</ele>
        <time>2022-07-13T14:35:40.118Z</time>
      </trkpt>
      <trkpt lat="43.68627" lon="1.46282">
        <ele>155.975634</ele>
        <time>2022-07-13T14:35:45.771Z</time>
      </trkpt>
      <trkpt lat="43.68691" lon="1.46325">
        <ele>157.744261</ele>
        <time>2022-07-13T14:36:03.890Z</time>
      </trkpt>
      <trkpt lat="43.68734" lon="1.46337">
        <ele>158.836418</ele>
        <time>2022-07-13T14:36:15.764Z</time>
      </trkpt>
      <trkpt lat="43.68778" lon="1.46358">
        <ele>161.1012</ele>
        <time>2022-07-13T14:36:29.276Z</time>
      </trkpt>
      <trkpt lat="43.68829" lon="1.46365">
        <ele>163.742796</ele>
        <time>2022-07-13T14:36:44.332Z</time>
      </trkpt>
      <trkpt lat="43.68879" lon="1.46389">
        <ele>166.485911</ele>
        <time>2022-07-13T14:36:59.856Z</time>
      </trkpt>
      <trkpt lat="43.68886" lon="1.46417">
        <ele>167.583209</ele>
        <time>2022-07-13T14:37:06.130Z</time>
      </trkpt>
      <trkpt lat="43.68915" lon="1.46425">
        <ele>168.809195</ele>
        <time>2022-07-13T14:37:14.617Z</time>
      </trkpt>
      <trkpt lat="43.6895" lon="1.46468">
        <ele>170.384952</ele>
        <time>2022-07-13T14:37:27.845Z</time>
      </trkpt>
      <trkpt lat="43.6898" lon="1.46471">
        <ele>171.422829</ele>
        <time>2022-07-13T14:37:36.466Z</time>
      </trkpt>
      <trkpt lat="43.69021" lon="1.46503">
        <ele>173.005751</ele>
        <time>2022-07-13T14:37:48.631Z</time>
      </trkpt>
      <trkpt lat="43.68993" lon="1.46576">
        <ele>174.108076</ele>
        <time>2022-07-13T14:38:03.548Z</time>
      </trkpt>
      <trkpt lat="43.68982" lon="1.4659">
        <ele>173.958667</ele>
        <time>2022-07-13T14:38:07.223Z</time>
      </trkpt>
      <trkpt lat="43.68965" lon="1.46587">
        <ele>173.790046</ele>
        <time>2022-07-13T14:38:11.354Z</time>
      </trkpt>
      <trkpt lat="43.68951" lon="1.46599">
        <ele>173.622458</ele>
        <time>2022-07-13T14:38:15.352Z</time>
      </trkpt>
      <trkpt lat="43.68946" lon="1.46616">
        <ele>173.491093</ele>
        <time>2022-07-13T14:38:18.438Z</time>
      </trkpt>
      <trkpt lat="43.68945" lon="1.46618">
        <ele>173.47114</ele>
        <time>2022-07-13T14:38:18.908Z</time>
      </trkpt>
      <trkpt lat="43.68964" lon="1.46653">
        <ele>173.154658</ele>
        <time>2022-07-13T14:38:26.059Z</time>
      </trkpt>
      <trkpt lat="43.68984" lon="1.4665">
        <ele>172.953979</ele>
        <time>2022-07-13T14:38:30.668Z</time>
      </trkpt>
      <trkpt lat="43.69" lon="1.46638">
        <ele>172.767253</ele>
        <time>2022-07-13T14:38:34.384Z</time>
      </trkpt>
      <trkpt lat="43.69027" lon="1.46604">
        <ele>172.170086</ele>
        <time>2022-07-13T14:38:41.985Z</time>
      </trkpt>
      <trkpt lat="43.69034" lon="1.46586">
        <ele>171.726577</ele>
        <time>2022-07-13T14:38:45.031Z</time>
      </trkpt>
      <trkpt lat="43.69061" lon="1.46559">
        <ele>170.701884</ele>
        <time>2022-07-13T14:38:51.705Z</time>
      </trkpt>
      <trkpt lat="43.69076" lon="1.4658">
        <ele>170.031657</ele>
        <time>2022-07-13T14:38:56.015Z</time>
      </trkpt>
      <trkpt lat="43.69097" lon="1.46577">
        <ele>169.37807</ele>
        <time>2022-07-13T14:39:00.486Z</time>
      </trkpt>
      <trkpt lat="43.69103" lon="1.46589">
        <ele>169.043799</ele>
        <time>2022-07-13T14:39:02.542Z</time>
      </trkpt>
      <trkpt lat="43.69107" lon="1.46587">
        <ele>168.91527</ele>
        <time>2022-07-13T14:39:03.415Z</time>
      </trkpt>
      <trkpt lat="43.69119" lon="1.46581">
        <ele>168.528183</ele>
        <time>2022-07-13T14:39:06.029Z</time>
      </trkpt>
      <trkpt lat="43.6913" lon="1.46585">
        <ele>168.175943</ele>
        <time>2022-07-13T14:39:08.458Z</time>
      </trkpt>
      <trkpt lat="43.69142" lon="1.4664">
        <ele>166.935419</ele>
        <time>2022-07-13T14:39:17.060Z</time>
      </trkpt>
      <trkpt lat="43.69159" lon="1.46718">
        <ele>166.92639</ele>
        <time>2022-07-13T14:39:30.158Z</time>
      </trkpt>
      <trkpt lat="43.69164" lon="1.46764">
        <ele>166.921327</ele>
        <time>2022-07-13T14:39:38.024Z</time>
      </trkpt>
      <trkpt lat="43.6916" lon="1.46837">
        <ele>166.913207</ele>
        <time>2022-07-13T14:39:51.460Z</time>
      </trkpt>
      <trkpt lat="43.69146" lon="1.46892">
        <ele>167.13599</ele>
        <time>2022-07-13T14:40:02.243Z</time>
      </trkpt>
      <trkpt lat="43.69135" lon="1.46912">
        <ele>167.611691</ele>
        <time>2022-07-13T14:40:07.192Z</time>
      </trkpt>
      <trkpt lat="43.69106" lon="1.47103">
        <ele>171.133255</ele>
        <time>2022-07-13T14:40:43.732Z</time>
      </trkpt>
      <trkpt lat="43.69105" lon="1.47124">
        <ele>171.504981</ele>
        <time>2022-07-13T14:40:47.798Z</time>
      </trkpt>
      <trkpt lat="43.69064" lon="1.47212">
        <ele>173.079527</ele>
        <time>2022-07-13T14:41:07.042Z</time>
      </trkpt>
      <trkpt lat="43.69058" lon="1.47284">
        <ele>174.180362</ele>
        <time>2022-07-13T14:41:20.510Z</time>
      </trkpt>
      <trkpt lat="43.69062" lon="1.47334">
        <ele>174.951641</ele>
        <time>2022-07-13T14:41:29.888Z</time>
      </trkpt>
      <trkpt lat="43.69057" lon="1.4736">
        <ele>175.34945</ele>
        <time>2022-07-13T14:41:34.810Z</time>
      </trkpt>
      <trkpt lat="43.69065" lon="1.47392">
        <ele>175.834868</ele>
        <time>2022-07-13T14:41:40.958Z</time>
      </trkpt>
      <trkpt lat="43.69088" lon="1.47453">
        <ele>176.829879</ele>
        <time>2022-07-13T14:41:53.685Z</time>
      </trkpt>
      <trkpt lat="43.69083" lon="1.47489">
        <ele>177.362893</ele>
        <time>2022-07-13T14:42:00.482Z</time>
      </trkpt>
      <trkpt lat="43.69088" lon="1.47501">
        <ele>177.556585</ele>
        <time>2022-07-13T14:42:03.000Z</time>
      </trkpt>
      <trkpt lat="43.69085" lon="1.47531">
        <ele>177.992008</ele>
        <time>2022-07-13T14:42:08.571Z</time>
      </trkpt>
      <trkpt lat="43.69069" lon="1.47587">
        <ele>178.870754</ele>
        <time>2022-07-13T14:42:19.725Z</time>
      </trkpt>
      <trkpt lat="43.69072" lon="1.47603">
        <ele>179.162148</ele>
        <time>2022-07-13T14:42:22.771Z</time>
      </trkpt>
      <trkpt lat="43.6906" lon="1.47625">
        <ele>179.662155</ele>
        <time>2022-07-13T14:42:27.959Z</time>
      </trkpt>
      <trkpt lat="43.69059" lon="1.47641">
        <ele>179.953958</ele>
        <time>2022-07-13T14:42:30.977Z</time>
      </trkpt>
      <trkpt lat="43.6906" lon="1.47679">
        <ele>180.650708</ele>
        <time>2022-07-13T14:42:38.121Z</time>
      </trkpt>
      <trkpt lat="43.69076" lon="1.47713">
        <ele>181.384345</ele>
        <time>2022-07-13T14:42:45.715Z</time>
      </trkpt>
      <trkpt lat="43.69081" lon="1.47741">
        <ele>181.906144</ele>
        <time>2022-07-13T14:42:51.123Z</time>
      </trkpt>
      <trkpt lat="43.69049" lon="1.47904">
        <ele>184.479771</ele>
        <time>2022-07-13T14:43:22.911Z</time>
      </trkpt>
      <trkpt lat="43.69039" lon="1.47924">
        <ele>184.787085</ele>
        <time>2022-07-13T14:43:27.254Z</time>
      </trkpt>
      <trkpt lat="43.69038" lon="1.47933">
        <ele>184.914361</ele>
        <time>2022-07-13T14:43:29.065Z</time>
      </trkpt>
      <trkpt lat="43.69049" lon="1.4795">
        <ele>185.209818</ele>
        <time>2022-07-13T14:43:33.291Z</time>
      </trkpt>
      <trkpt lat="43.69048" lon="1.47963">
        <ele>185.375344</ele>
        <time>2022-07-13T14:43:35.584Z</time>
      </trkpt>
      <trkpt lat="43.69035" lon="1.47997">
        <ele>185.877969</ele>
        <time>2022-07-13T14:43:42.679Z</time>
      </trkpt>
      <trkpt lat="43.69031" lon="1.48026">
        <ele>186.251305</ele>
        <time>2022-07-13T14:43:47.875Z</time>
      </trkpt>
      <trkpt lat="43.69023" lon="1.4804">
        <ele>186.483337</ele>
        <time>2022-07-13T14:43:51.135Z</time>
      </trkpt>
      <trkpt lat="43.69059" lon="1.4801">
        <ele>186.467992</ele>
        <time>2022-07-13T14:44:01.526Z</time>
      </trkpt>
      <trkpt lat="43.69095" lon="1.47994">
        <ele>186.450917</ele>
        <time>2022-07-13T14:44:10.681Z</time>
      </trkpt>
      <trkpt lat="43.69116" lon="1.47985">
        <ele>186.441045</ele>
        <time>2022-07-13T14:44:15.924Z</time>
      </trkpt>
      <trkpt lat="43.69127" lon="1.47986">
        <ele>186.43582</ele>
        <time>2022-07-13T14:44:18.674Z</time>
      </trkpt>
      <trkpt lat="43.6915" lon="1.48006">
        <ele>186.423748</ele>
        <time>2022-07-13T14:44:25.076Z</time>
      </trkpt>
      <trkpt lat="43.69158" lon="1.48005">
        <ele>186.419934</ele>
        <time>2022-07-13T14:44:26.995Z</time>
      </trkpt>
      <trkpt lat="43.69173" lon="1.47988">
        <ele>186.41143</ele>
        <time>2022-07-13T14:44:31.284Z</time>
      </trkpt>
      <trkpt lat="43.69182" lon="1.47986">
        <ele>186.407026</ele>
        <time>2022-07-13T14:44:33.530Z</time>
      </trkpt>
      <trkpt lat="43.69225" lon="1.48007">
        <ele>186.798285</ele>
        <time>2022-07-13T14:44:44.318Z</time>
      </trkpt>
      <trkpt lat="43.69259" lon="1.47998">
        <ele>187.12129</ele>
        <time>2022-07-13T14:44:52.837Z</time>
      </trkpt>
      <trkpt lat="43.69278" lon="1.47983">
        <ele>187.325925</ele>
        <time>2022-07-13T14:44:58.325Z</time>
      </trkpt>
      <trkpt lat="43.69281" lon="1.47974">
        <ele>187.390905</ele>
        <time>2022-07-13T14:45:00.103Z</time>
      </trkpt>
      <trkpt lat="43.69283" lon="1.479">
        <ele>187.890083</ele>
        <time>2022-07-13T14:45:13.666Z</time>
      </trkpt>
      <trkpt lat="43.69343" lon="1.47776">
        <ele>191.749496</ele>
        <time>2022-07-13T14:45:38.927Z</time>
      </trkpt>
      <trkpt lat="43.69364" lon="1.47775">
        <ele>192.642633</ele>
        <time>2022-07-13T14:45:43.742Z</time>
      </trkpt>
      <trkpt lat="43.69432" lon="1.47777">
        <ele>195.465172</ele>
        <time>2022-07-13T14:45:59.556Z</time>
      </trkpt>
      <trkpt lat="43.6944" lon="1.4777">
        <ele>195.896354</ele>
        <time>2022-07-13T14:46:02.208Z</time>
      </trkpt>
      <trkpt lat="43.69478" lon="1.47684">
        <ele>199.449244</ele>
        <time>2022-07-13T14:46:19.653Z</time>
      </trkpt>
      <trkpt lat="43.69497" lon="1.47586">
        <ele>202.975639</ele>
        <time>2022-07-13T14:46:36.584Z</time>
      </trkpt>
      <trkpt lat="43.69541" lon="1.47505">
        <ele>205.624081</ele>
        <time>2022-07-13T14:46:51.998Z</time>
      </trkpt>
      <trkpt lat="43.69547" lon="1.47511">
        <ele>205.824583</ele>
        <time>2022-07-13T14:46:53.406Z</time>
      </trkpt>
      <trkpt lat="43.69573" lon="1.4754">
        <ele>206.790959</ele>
        <time>2022-07-13T14:47:00.153Z</time>
      </trkpt>
      <trkpt lat="43.69581" lon="1.47558">
        <ele>207.237835</ele>
        <time>2022-07-13T14:47:03.255Z</time>
      </trkpt>
      <trkpt lat="43.69587" lon="1.47601">
        <ele>208.145204</ele>
        <time>2022-07-13T14:47:09.451Z</time>
      </trkpt>
      <trkpt lat="43.69599" lon="1.47638">
        <ele>209.008739</ele>
        <time>2022-07-13T14:47:15.139Z</time>
      </trkpt>
      <trkpt lat="43.69647" lon="1.47751">
        <ele>209.794856</ele>
        <time>2022-07-13T14:47:31.492Z</time>
      </trkpt>
      <trkpt lat="43.69655" lon="1.4777">
        <ele>209.856698</ele>
        <time>2022-07-13T14:47:34.075Z</time>
      </trkpt>
      <trkpt lat="43.69698" lon="1.47814">
        <ele>210.068234</ele>
        <time>2022-07-13T14:47:42.517Z</time>
      </trkpt>
      <trkpt lat="43.69708" lon="1.47826">
        <ele>210.121159</ele>
        <time>2022-07-13T14:47:44.525Z</time>
      </trkpt>
      <trkpt lat="43.69737" lon="1.47837">
        <ele>210.020856</ele>
        <time>2022-07-13T14:47:48.902Z</time>
      </trkpt>
      <trkpt lat="43.69762" lon="1.47834">
        <ele>209.591628</ele>
        <time>2022-07-13T14:47:52.463Z</time>
      </trkpt>
      <trkpt lat="43.69857" lon="1.47802">
        <ele>207.903582</ele>
        <time>2022-07-13T14:48:05.722Z</time>
      </trkpt>
      <trkpt lat="43.69867" lon="1.478">
        <ele>207.7217</ele>
        <time>2022-07-13T14:48:07.094Z</time>
      </trkpt>
      <trkpt lat="43.69887" lon="1.47775">
        <ele>207.267696</ele>
        <time>2022-07-13T14:48:10.520Z</time>
      </trkpt>
      <trkpt lat="43.69987" lon="1.47645">
        <ele>203.160929</ele>
        <time>2022-07-13T14:48:27.450Z</time>
      </trkpt>
      <trkpt lat="43.7003" lon="1.47617">
        <ele>201.693968</ele>
        <time>2022-07-13T14:48:33.150Z</time>
      </trkpt>
      <trkpt lat="43.70076" lon="1.47616">
        <ele>200.310855</ele>
        <time>2022-07-13T14:48:38.898Z</time>
      </trkpt>
      <trkpt lat="43.70109" lon="1.47629">
        <ele>199.284901</ele>
        <time>2022-07-13T14:48:43.031Z</time>
      </trkpt>
      <trkpt lat="43.70133" lon="1.47631">
        <ele>198.568726</ele>
        <time>2022-07-13T14:48:45.816Z</time>
      </trkpt>
      <trkpt lat="43.70191" lon="1.47602">
        <ele>196.692671</ele>
        <time>2022-07-13T14:48:53.663Z</time>
      </trkpt>
      <trkpt lat="43.7021" lon="1.47606">
        <ele>196.133733</ele>
        <time>2022-07-13T14:48:56.129Z</time>
      </trkpt>
      <trkpt lat="43.7025" lon="1.47638">
        <ele>194.949852</ele>
        <time>2022-07-13T14:49:02.195Z</time>
      </trkpt>
      <trkpt lat="43.70289" lon="1.4767">
        <ele>193.792297</ele>
        <time>2022-07-13T14:49:08.116Z</time>
      </trkpt>
      <trkpt lat="43.70377" lon="1.47716">
        <ele>191.400759</ele>
        <time>2022-07-13T14:49:19.771Z</time>
      </trkpt>
      <trkpt lat="43.7048" lon="1.47767">
        <ele>188.776671</ele>
        <time>2022-07-13T14:49:42.935Z</time>
      </trkpt>
      <trkpt lat="43.70586" lon="1.48004">
        <ele>185.381811</ele>
        <time>2022-07-13T14:50:27.696Z</time>
      </trkpt>
      <trkpt lat="43.70673" lon="1.48156">
        <ele>184.975277</ele>
        <time>2022-07-13T14:51:01.294Z</time>
      </trkpt>
      <trkpt lat="43.70713" lon="1.48189">
        <ele>185.04911</ele>
        <time>2022-07-13T14:51:12.694Z</time>
      </trkpt>
      <trkpt lat="43.70926" lon="1.4833">
        <ele>186.346735</ele>
        <time>2022-07-13T14:52:10.855Z</time>
      </trkpt>
      <trkpt lat="43.71005" lon="1.48409">
        <ele>187.281393</ele>
        <time>2022-07-13T14:52:35.222Z</time>
      </trkpt>
      <trkpt lat="43.71026" lon="1.48429">
        <ele>187.531393</ele>
        <time>2022-07-13T14:52:39.881Z</time>
      </trkpt>
      <trkpt lat="43.71068" lon="1.48479">
        <ele>188.024931</ele>
        <time>2022-07-13T14:52:49.893Z</time>
      </trkpt>
      <trkpt lat="43.71151" lon="1.48576">
        <ele>188.841597</ele>
        <time>2022-07-13T14:53:08.817Z</time>
      </trkpt>
      <trkpt lat="43.71162" lon="1.48581">
        <ele>188.930554</ele>
        <time>2022-07-13T14:53:10.868Z</time>
      </trkpt>
      <trkpt lat="43.71276" lon="1.48783">
        <ele>189.098575</ele>
        <time>2022-07-13T14:53:40.584Z</time>
      </trkpt>
      <trkpt lat="43.71351" lon="1.48928">
        <ele>187.892042</ele>
        <time>2022-07-13T14:54:00.016Z</time>
      </trkpt>
      <trkpt lat="43.71372" lon="1.48993">
        <ele>187.253342</ele>
        <time>2022-07-13T14:54:07.124Z</time>
      </trkpt>
      <trkpt lat="43.71391" lon="1.49034">
        <ele>186.808415</ele>
        <time>2022-07-13T14:54:11.691Z</time>
      </trkpt>
      <trkpt lat="43.71486" lon="1.49171">
        <ele>181.822021</ele>
        <time>2022-07-13T14:54:28.309Z</time>
      </trkpt>
      <trkpt lat="43.7152" lon="1.49239">
        <ele>179.407269</ele>
        <time>2022-07-13T14:54:35.136Z</time>
      </trkpt>
      <trkpt lat="43.71595" lon="1.49414">
        <ele>171.890324</ele>
        <time>2022-07-13T14:54:51.873Z</time>
      </trkpt>
      <trkpt lat="43.716" lon="1.49443">
        <ele>170.717074</ele>
        <time>2022-07-13T14:54:54.253Z</time>
      </trkpt>
      <trkpt lat="43.71598" lon="1.495">
        <ele>168.095587</ele>
        <time>2022-07-13T14:54:58.793Z</time>
      </trkpt>
      <trkpt lat="43.71596" lon="1.497">
        <ele>159.185674</ele>
        <time>2022-07-13T14:55:14.419Z</time>
      </trkpt>
      <trkpt lat="43.71611" lon="1.49769">
        <ele>156.642493</ele>
        <time>2022-07-13T14:55:20.134Z</time>
      </trkpt>
      <trkpt lat="43.71639" lon="1.4998">
        <ele>150.130378</ele>
        <time>2022-07-13T14:55:38.377Z</time>
      </trkpt>
      <trkpt lat="43.71647" lon="1.50003">
        <ele>149.669832</ele>
        <time>2022-07-13T14:55:40.846Z</time>
      </trkpt>
      <trkpt lat="43.71673" lon="1.50028">
        <ele>148.905534</ele>
        <time>2022-07-13T14:55:44.950Z</time>
      </trkpt>
      <trkpt lat="43.71725" lon="1.50048">
        <ele>147.597852</ele>
        <time>2022-07-13T14:55:52.091Z</time>
      </trkpt>
      <trkpt lat="43.71755" lon="1.50068">
        <ele>146.785175</ele>
        <time>2022-07-13T14:55:56.610Z</time>
      </trkpt>
      <trkpt lat="43.71889" lon="1.50257">
        <ele>143.322549</ele>
        <time>2022-07-13T14:56:22.211Z</time>
      </trkpt>
      <trkpt lat="43.71908" lon="1.50266">
        <ele>142.912144</ele>
        <time>2022-07-13T14:56:24.939Z</time>
      </trkpt>
      <trkpt lat="43.71962" lon="1.50261">
        <ele>141.853321</ele>
        <time>2022-07-13T14:56:31.927Z</time>
      </trkpt>
      <trkpt lat="43.71917" lon="1.50505">
        <ele>138.521337</ele>
        <time>2022-07-13T14:56:54.497Z</time>
      </trkpt>
      <trkpt lat="43.71931" lon="1.50521">
        <ele>138.215239</ele>
        <time>2022-07-13T14:56:56.801Z</time>
      </trkpt>
      <trkpt lat="43.71979" lon="1.506">
        <ele>136.973719</ele>
        <time>2022-07-13T14:57:06.447Z</time>
      </trkpt>
      <trkpt lat="43.72022" lon="1.50644">
        <ele>136.468768</ele>
        <time>2022-07-13T14:57:13.592Z</time>
      </trkpt>
      <trkpt lat="43.72109" lon="1.50718">
        <ele>135.537371</ele>
        <time>2022-07-13T14:57:27.694Z</time>
      </trkpt>
      <trkpt lat="43.7219" lon="1.50825">
        <ele>134.889389</ele>
        <time>2022-07-13T14:57:43.478Z</time>
      </trkpt>
      <trkpt lat="43.72272" lon="1.50905">
        <ele>134.413832</ele>
        <time>2022-07-13T14:57:58.084Z</time>
      </trkpt>
      <trkpt lat="43.72293" lon="1.50932">
        <ele>134.292965</ele>
        <time>2022-07-13T14:58:02.330Z</time>
      </trkpt>
      <trkpt lat="43.72333" lon="1.5101">
        <ele>134.003271</ele>
        <time>2022-07-13T14:58:12.486Z</time>
      </trkpt>
      <trkpt lat="43.72397" lon="1.51146">
        <ele>133.49117</ele>
        <time>2022-07-13T14:58:29.167Z</time>
      </trkpt>
      <trkpt lat="43.72407" lon="1.51166">
        <ele>133.410222</ele>
        <time>2022-07-13T14:58:31.592Z</time>
      </trkpt>
      <trkpt lat="43.72439" lon="1.51231">
        <ele>133.144181</ele>
        <time>2022-07-13T14:58:39.639Z</time>
      </trkpt>
      <trkpt lat="43.72443" lon="1.51256">
        <ele>133.057387</ele>
        <time>2022-07-13T14:58:42.291Z</time>
      </trkpt>
      <trkpt lat="43.7246" lon="1.51266">
        <ele>132.969733</ele>
        <time>2022-07-13T14:58:45.030Z</time>
      </trkpt>
      <trkpt lat="43.72473" lon="1.51288">
        <ele>132.874878</ele>
        <time>2022-07-13T14:58:47.991Z</time>
      </trkpt>
      <trkpt lat="43.72531" lon="1.51394">
        <ele>132.958886</ele>
        <time>2022-07-13T14:59:02.567Z</time>
      </trkpt>
      <trkpt lat="43.72505" lon="1.51419">
        <ele>133.000074</ele>
        <time>2022-07-13T14:59:07.638Z</time>
      </trkpt>
      <trkpt lat="43.72474" lon="1.51531">
        <ele>133.29077</ele>
        <time>2022-07-13T14:59:21.505Z</time>
      </trkpt>
      <trkpt lat="43.72442" lon="1.51606">
        <ele>133.778781</ele>
        <time>2022-07-13T14:59:31.649Z</time>
      </trkpt>
      <trkpt lat="43.72438" lon="1.51783">
        <ele>135.119138</ele>
        <time>2022-07-13T14:59:53.324Z</time>
      </trkpt>
      <trkpt lat="43.72557" lon="1.51887">
        <ele>137.476944</ele>
        <time>2022-07-13T15:00:29.120Z</time>
      </trkpt>
      <trkpt lat="43.72639" lon="1.52006">
        <ele>139.593276</ele>
        <time>2022-07-13T15:00:59.613Z</time>
      </trkpt>
      <trkpt lat="43.7273" lon="1.52107">
        <ele>141.051586</ele>
        <time>2022-07-13T15:01:29.076Z</time>
      </trkpt>
      <trkpt lat="43.72776" lon="1.52163">
        <ele>141.44883</ele>
        <time>2022-07-13T15:01:44.087Z</time>
      </trkpt>
      <trkpt lat="43.72802" lon="1.52212">
        <ele>141.736465</ele>
        <time>2022-07-13T15:01:54.870Z</time>
      </trkpt>
      <trkpt lat="43.72856" lon="1.52251">
        <ele>142.080875</ele>
        <time>2022-07-13T15:02:09.507Z</time>
      </trkpt>
      <trkpt lat="43.72885" lon="1.52257">
        <ele>142.237659</ele>
        <time>2022-07-13T15:02:16.737Z</time>
      </trkpt>
      <trkpt lat="43.72968" lon="1.5224">
        <ele>142.6813</ele>
        <time>2022-07-13T15:02:37.492Z</time>
      </trkpt>
      <trkpt lat="43.73002" lon="1.52225">
        <ele>142.923619</ele>
        <time>2022-07-13T15:02:46.467Z</time>
      </trkpt>
      <trkpt lat="43.73023" lon="1.52232">
        <ele>143.132437</ele>
        <time>2022-07-13T15:02:51.808Z</time>
      </trkpt>
      <trkpt lat="43.73107" lon="1.52348">
        <ele>144.301402</ele>
        <time>2022-07-13T15:03:21.563Z</time>
      </trkpt>
      <trkpt lat="43.73184" lon="1.52435">
        <ele>144.874236</ele>
        <time>2022-07-13T15:03:46.320Z</time>
      </trkpt>
      <trkpt lat="43.73214" lon="1.52487">
        <ele>145.076507</ele>
        <time>2022-07-13T15:03:58.184Z</time>
      </trkpt>
      <trkpt lat="43.7323" lon="1.52501">
        <ele>145.153586</ele>
        <time>2022-07-13T15:04:02.684Z</time>
      </trkpt>
      <trkpt lat="43.73234" lon="1.52525">
        <ele>145.229619</ele>
        <time>2022-07-13T15:04:05.430Z</time>
      </trkpt>
      <trkpt lat="43.73344" lon="1.52793">
        <ele>144.840035</ele>
        <time>2022-07-13T15:04:37.598Z</time>
      </trkpt>
      <trkpt lat="43.73345" lon="1.52802">
        <ele>144.889256</ele>
        <time>2022-07-13T15:04:38.549Z</time>
      </trkpt>
      <trkpt lat="43.73348" lon="1.52832">
        <ele>145.066136</ele>
        <time>2022-07-13T15:04:42.078Z</time>
      </trkpt>
      <trkpt lat="43.73356" lon="1.52838">
        <ele>145.138973</ele>
        <time>2022-07-13T15:04:43.482Z</time>
      </trkpt>
      <trkpt lat="43.73386" lon="1.52861">
        <ele>145.409583</ele>
        <time>2022-07-13T15:04:49.066Z</time>
      </trkpt>
      <trkpt lat="43.73422" lon="1.52934">
        <ele>145.923968</ele>
        <time>2022-07-13T15:05:00.606Z</time>
      </trkpt>
      <trkpt lat="43.73433" lon="1.52946">
        <ele>146.034953</ele>
        <time>2022-07-13T15:05:03.142Z</time>
      </trkpt>
      <trkpt lat="43.73492" lon="1.52966">
        <ele>147.370433</ele>
        <time>2022-07-13T15:05:14.894Z</time>
      </trkpt>
      <trkpt lat="43.73597" lon="1.52966">
        <ele>150.034046</ele>
        <time>2022-07-13T15:05:42.206Z</time>
      </trkpt>
      <trkpt lat="43.73712" lon="1.53014">
        <ele>153.861753</ele>
        <time>2022-07-13T15:06:13.675Z</time>
      </trkpt>
      <trkpt lat="43.73766" lon="1.53045">
        <ele>155.805088</ele>
        <time>2022-07-13T15:06:29.123Z</time>
      </trkpt>
      <trkpt lat="43.73806" lon="1.53095">
        <ele>158.476063</ele>
        <time>2022-07-13T15:06:44.215Z</time>
      </trkpt>
      <trkpt lat="43.73827" lon="1.5311">
        <ele>160.000007</ele>
        <time>2022-07-13T15:06:50.844Z</time>
      </trkpt>
      <trkpt lat="43.74075" lon="1.53181">
        <ele>177.255641</ele>
        <time>2022-07-13T15:08:13.768Z</time>
      </trkpt>
      <trkpt lat="43.7412" lon="1.53222">
        <ele>181.075301</ele>
        <time>2022-07-13T15:08:30.546Z</time>
      </trkpt>
      <trkpt lat="43.74197" lon="1.53234">
        <ele>185.469642</ele>
        <time>2022-07-13T15:08:53.797Z</time>
      </trkpt>
      <trkpt lat="43.74263" lon="1.53292">
        <ele>189.870642</ele>
        <time>2022-07-13T15:09:16.943Z</time>
      </trkpt>
      <trkpt lat="43.74417" lon="1.53381">
        <ele>196.68786</ele>
        <time>2022-07-13T15:10:03.253Z</time>
      </trkpt>
      <trkpt lat="43.74561" lon="1.53521">
        <ele>200.867338</ele>
        <time>2022-07-13T15:10:48.160Z</time>
      </trkpt>
      <trkpt lat="43.74632" lon="1.53559">
        <ele>202.936344</ele>
        <time>2022-07-13T15:11:07.374Z</time>
      </trkpt>
      <trkpt lat="43.7467" lon="1.53587">
        <ele>204.568613</ele>
        <time>2022-07-13T15:11:18.888Z</time>
      </trkpt>
      <trkpt lat="43.74704" lon="1.53592">
        <ele>205.851142</ele>
        <time>2022-07-13T15:11:28.313Z</time>
      </trkpt>
      <trkpt lat="43.74768" lon="1.53442">
        <ele>211.017489</ele>
        <time>2022-07-13T15:12:00.276Z</time>
      </trkpt>
      <trkpt lat="43.7476" lon="1.53428">
        <ele>211.610574</ele>
        <time>2022-07-13T15:12:04.156Z</time>
      </trkpt>
      <trkpt lat="43.74796" lon="1.53344">
        <ele>214.79162</ele>
        <time>2022-07-13T15:12:24.562Z</time>
      </trkpt>
      <trkpt lat="43.74809" lon="1.53345">
        <ele>215.382749</ele>
        <time>2022-07-13T15:12:28.096Z</time>
      </trkpt>
      <trkpt lat="43.74836" lon="1.53369">
        <ele>216.623808</ele>
        <time>2022-07-13T15:12:36.493Z</time>
      </trkpt>
      <trkpt lat="43.74855" lon="1.5338">
        <ele>216.870159</ele>
        <time>2022-07-13T15:12:41.291Z</time>
      </trkpt>
      <trkpt lat="43.74857" lon="1.53387">
        <ele>216.936429</ele>
        <time>2022-07-13T15:12:42.510Z</time>
      </trkpt>
      <trkpt lat="43.74856" lon="1.53443">
        <ele>217.413159</ele>
        <time>2022-07-13T15:12:51.070Z</time>
      </trkpt>
      <trkpt lat="43.74921" lon="1.53486">
        <ele>218.275124</ele>
        <time>2022-07-13T15:13:06.158Z</time>
      </trkpt>
      <trkpt lat="43.74937" lon="1.53454">
        <ele>218.613221</ele>
        <time>2022-07-13T15:13:10.702Z</time>
      </trkpt>
      <trkpt lat="43.74974" lon="1.53549">
        <ele>215.815554</ele>
        <time>2022-07-13T15:13:28.164Z</time>
      </trkpt>
      <trkpt lat="43.74997" lon="1.53617">
        <ele>213.570193</ele>
        <time>2022-07-13T15:13:38.820Z</time>
      </trkpt>
      <trkpt lat="43.75024" lon="1.53659">
        <ele>211.87091</ele>
        <time>2022-07-13T15:13:46.371Z</time>
      </trkpt>
      <trkpt lat="43.75132" lon="1.53791">
        <ele>199.712113</ele>
        <time>2022-07-13T15:14:11.595Z</time>
      </trkpt>
      <trkpt lat="43.75233" lon="1.53887">
        <ele>189.085651</ele>
        <time>2022-07-13T15:14:32.653Z</time>
      </trkpt>
      <trkpt lat="43.75272" lon="1.53962">
        <ele>183.422392</ele>
        <time>2022-07-13T15:14:44.415Z</time>
      </trkpt>
      <trkpt lat="43.75279" lon="1.53985">
        <ele>181.908193</ele>
        <time>2022-07-13T15:14:47.682Z</time>
      </trkpt>
      <trkpt lat="43.75287" lon="1.54044">
        <ele>179.437867</ele>
        <time>2022-07-13T15:14:55.659Z</time>
      </trkpt>
      <trkpt lat="43.75282" lon="1.54097">
        <ele>178.48983</ele>
        <time>2022-07-13T15:15:03.163Z</time>
      </trkpt>
      <trkpt lat="43.75294" lon="1.54152">
        <ele>177.472745</ele>
        <time>2022-07-13T15:15:12.042Z</time>
      </trkpt>
      <trkpt lat="43.7531" lon="1.54194">
        <ele>176.630783</ele>
        <time>2022-07-13T15:15:20.177Z</time>
      </trkpt>
      <trkpt lat="43.7532" lon="1.54215">
        <ele>176.181776</ele>
        <time>2022-07-13T15:15:24.591Z</time>
      </trkpt>
      <trkpt lat="43.75359" lon="1.54265">
        <ele>175.896256</ele>
        <time>2022-07-13T15:15:37.468Z</time>
      </trkpt>
      <trkpt lat="43.75342" lon="1.54324">
        <ele>176.606194</ele>
        <time>2022-07-13T15:15:49.536Z</time>
      </trkpt>
      <trkpt lat="43.7529" lon="1.54449">
        <ele>178.211346</ele>
        <time>2022-07-13T15:16:16.384Z</time>
      </trkpt>
      <trkpt lat="43.75289" lon="1.54471">
        <ele>178.040983</ele>
        <time>2022-07-13T15:16:20.304Z</time>
      </trkpt>
      <trkpt lat="43.75309" lon="1.54608">
        <ele>176.042518</ele>
        <time>2022-07-13T15:16:43.577Z</time>
      </trkpt>
      <trkpt lat="43.75363" lon="1.54729">
        <ele>172.796005</ele>
        <time>2022-07-13T15:17:03.900Z</time>
      </trkpt>
      <trkpt lat="43.75423" lon="1.5478">
        <ele>169.046531</ele>
        <time>2022-07-13T15:17:17.075Z</time>
      </trkpt>
      <trkpt lat="43.75466" lon="1.54859">
        <ele>165.252798</ele>
        <time>2022-07-13T15:17:30.200Z</time>
      </trkpt>
      <trkpt lat="43.75483" lon="1.5493">
        <ele>164.299309</ele>
        <time>2022-07-13T15:17:40.877Z</time>
      </trkpt>
      <trkpt lat="43.75516" lon="1.55003">
        <ele>163.337416</ele>
        <time>2022-07-13T15:17:54.523Z</time>
      </trkpt>
      <trkpt lat="43.75491" lon="1.55034">
        <ele>162.822104</ele>
        <time>2022-07-13T15:17:59.861Z</time>
      </trkpt>
      <trkpt lat="43.75553" lon="1.55145">
        <ele>166.120683</ele>
        <time>2022-07-13T15:18:26.377Z</time>
      </trkpt>
      <trkpt lat="43.7556" lon="1.55215">
        <ele>168.963627</ele>
        <time>2022-07-13T15:18:41.849Z</time>
      </trkpt>
      <trkpt lat="43.75579" lon="1.55261">
        <ele>171.096607</ele>
        <time>2022-07-13T15:18:55.233Z</time>
      </trkpt>
      <trkpt lat="43.75606" lon="1.55308">
        <ele>173.735828</ele>
        <time>2022-07-13T15:19:10.796Z</time>
      </trkpt>
      <trkpt lat="43.75559" lon="1.55358">
        <ele>177.724797</ele>
        <time>2022-07-13T15:19:27.266Z</time>
      </trkpt>
      <trkpt lat="43.75556" lon="1.55379">
        <ele>178.760609</ele>
        <time>2022-07-13T15:19:33.718Z</time>
      </trkpt>
      <trkpt lat="43.75572" lon="1.55406">
        <ele>180.424097</ele>
        <time>2022-07-13T15:19:41.024Z</time>
      </trkpt>
      <trkpt lat="43.75639" lon="1.55496">
        <ele>184.060104</ele>
        <time>2022-07-13T15:20:07.212Z</time>
      </trkpt>
      <trkpt lat="43.75622" lon="1.55528">
        <ele>183.814365</ele>
        <time>2022-07-13T15:20:12.515Z</time>
      </trkpt>
      <trkpt lat="43.75667" lon="1.55599">
        <ele>183.22055</ele>
        <time>2022-07-13T15:20:21.289Z</time>
      </trkpt>
      <trkpt lat="43.75685" lon="1.55615">
        <ele>183.03623</ele>
        <time>2022-07-13T15:20:23.764Z</time>
      </trkpt>
      <trkpt lat="43.75744" lon="1.55632">
        <ele>181.335449</ele>
        <time>2022-07-13T15:20:30.702Z</time>
      </trkpt>
      <trkpt lat="43.75775" lon="1.55652">
        <ele>179.883759</ele>
        <time>2022-07-13T15:20:34.414Z</time>
      </trkpt>
      <trkpt lat="43.75849" lon="1.55705">
        <ele>176.241968</ele>
        <time>2022-07-13T15:20:44.022Z</time>
      </trkpt>
      <trkpt lat="43.75914" lon="1.55749">
        <ele>174.191153</ele>
        <time>2022-07-13T15:20:53.083Z</time>
      </trkpt>
      <trkpt lat="43.75983" lon="1.55809">
        <ele>172.669622</ele>
        <time>2022-07-13T15:21:04.342Z</time>
      </trkpt>
      <trkpt lat="43.76006" lon="1.55841">
        <ele>172.0643</ele>
        <time>2022-07-13T15:21:08.887Z</time>
      </trkpt>
      <trkpt lat="43.7604" lon="1.55924">
        <ele>170.93782</ele>
        <time>2022-07-13T15:21:18.349Z</time>
      </trkpt>
      <trkpt lat="43.76057" lon="1.55953">
        <ele>170.513742</ele>
        <time>2022-07-13T15:21:22.122Z</time>
      </trkpt>
      <trkpt lat="43.76198" lon="1.56133">
        <ele>168.013662</ele>
        <time>2022-07-13T15:21:48.044Z</time>
      </trkpt>
      <trkpt lat="43.76219" lon="1.56149">
        <ele>167.771205</ele>
        <time>2022-07-13T15:21:51.397Z</time>
      </trkpt>
      <trkpt lat="43.76222" lon="1.56321">
        <ele>167.550725</ele>
        <time>2022-07-13T15:22:21.153Z</time>
      </trkpt>
      <trkpt lat="43.76227" lon="1.56573">
        <ele>169.367772</ele>
        <time>2022-07-13T15:23:07.254Z</time>
      </trkpt>
      <trkpt lat="43.76214" lon="1.56613">
        <ele>169.723949</ele>
        <time>2022-07-13T15:23:15.140Z</time>
      </trkpt>
      <trkpt lat="43.76202" lon="1.56634">
        <ele>169.948151</ele>
        <time>2022-07-13T15:23:20.123Z</time>
      </trkpt>
      <trkpt lat="43.76194" lon="1.56804">
        <ele>170.801356</ele>
        <time>2022-07-13T15:23:50.715Z</time>
      </trkpt>
      <trkpt lat="43.76243" lon="1.56887">
        <ele>170.83579</ele>
        <time>2022-07-13T15:24:09.217Z</time>
      </trkpt>
      <trkpt lat="43.7626" lon="1.56925">
        <ele>170.850066</ele>
        <time>2022-07-13T15:24:16.913Z</time>
      </trkpt>
      <trkpt lat="43.76266" lon="1.56953">
        <ele>170.858386</ele>
        <time>2022-07-13T15:24:21.944Z</time>
      </trkpt>
      <trkpt lat="43.76281" lon="1.56982">
        <ele>170.824018</ele>
        <time>2022-07-13T15:24:28.185Z</time>
      </trkpt>
      <trkpt lat="43.76314" lon="1.5708">
        <ele>170.719709</ele>
        <time>2022-07-13T15:24:47.145Z</time>
      </trkpt>
      <trkpt lat="43.76349" lon="1.5711">
        <ele>170.664407</ele>
        <time>2022-07-13T15:24:57.095Z</time>
      </trkpt>
      <trkpt lat="43.76361" lon="1.57131">
        <ele>170.639223</ele>
        <time>2022-07-13T15:25:01.633Z</time>
      </trkpt>
      <trkpt lat="43.7637" lon="1.57165">
        <ele>170.565746</ele>
        <time>2022-07-13T15:25:07.853Z</time>
      </trkpt>
      <trkpt lat="43.76371" lon="1.57182">
        <ele>170.505152</ele>
        <time>2022-07-13T15:25:10.938Z</time>
      </trkpt>
      <trkpt lat="43.76412" lon="1.57174">
        <ele>170.306164</ele>
        <time>2022-07-13T15:25:21.005Z</time>
      </trkpt>
      <trkpt lat="43.76417" lon="1.57191">
        <ele>170.245492</ele>
        <time>2022-07-13T15:25:24.078Z</time>
      </trkpt>
      <trkpt lat="43.76475" lon="1.57288">
        <ele>169.8162</ele>
        <time>2022-07-13T15:25:45.855Z</time>
      </trkpt>
      <trkpt lat="43.76475" lon="1.57333">
        <ele>169.757691</ele>
        <time>2022-07-13T15:25:53.679Z</time>
      </trkpt>
      <trkpt lat="43.76457" lon="1.57342">
        <ele>169.746017</ele>
        <time>2022-07-13T15:25:58.227Z</time>
      </trkpt>
      <trkpt lat="43.76453" lon="1.57352">
        <ele>169.740926</ele>
        <time>2022-07-13T15:26:00.206Z</time>
      </trkpt>
      <trkpt lat="43.76455" lon="1.57377">
        <ele>169.7295</ele>
        <time>2022-07-13T15:26:04.652Z</time>
      </trkpt>
      <trkpt lat="43.76434" lon="1.57472">
        <ele>169.685446</ele>
        <time>2022-07-13T15:26:21.866Z</time>
      </trkpt>
      <trkpt lat="43.76438" lon="1.57503">
        <ele>169.671467</ele>
        <time>2022-07-13T15:26:27.368Z</time>
      </trkpt>
      <trkpt lat="43.7642" lon="1.57545">
        <ele>169.687999</ele>
        <time>2022-07-13T15:26:35.974Z</time>
      </trkpt>
      <trkpt lat="43.76414" lon="1.57575">
        <ele>169.719583</ele>
        <time>2022-07-13T15:26:41.434Z</time>
      </trkpt>
      <trkpt lat="43.76417" lon="1.57599">
        <ele>169.74415</ele>
        <time>2022-07-13T15:26:45.644Z</time>
      </trkpt>
      <trkpt lat="43.764" lon="1.57663">
        <ele>169.813373</ele>
        <time>2022-07-13T15:26:57.567Z</time>
      </trkpt>
      <trkpt lat="43.76397" lon="1.57717">
        <ele>169.868288</ele>
        <time>2022-07-13T15:27:07.020Z</time>
      </trkpt>
      <trkpt lat="43.76377" lon="1.57789">
        <ele>169.948993</ele>
        <time>2022-07-13T15:27:20.379Z</time>
      </trkpt>
      <trkpt lat="43.76455" lon="1.57953">
        <ele>170.16433</ele>
        <time>2022-07-13T15:27:55.024Z</time>
      </trkpt>
      <trkpt lat="43.76466" lon="1.57945">
        <ele>170.183845</ele>
        <time>2022-07-13T15:27:58.177Z</time>
      </trkpt>
      <trkpt lat="43.76467" lon="1.5797">
        <ele>170.020285</ele>
        <time>2022-07-13T15:28:02.626Z</time>
      </trkpt>
      <trkpt lat="43.76474" lon="1.57992">
        <ele>169.84176</ele>
        <time>2022-07-13T15:28:06.785Z</time>
      </trkpt>
      <trkpt lat="43.76475" lon="1.58002">
        <ele>169.770203</ele>
        <time>2022-07-13T15:28:08.452Z</time>
      </trkpt>
      <trkpt lat="43.76482" lon="1.58023">
        <ele>169.600653</ele>
        <time>2022-07-13T15:28:12.379Z</time>
      </trkpt>
      <trkpt lat="43.76497" lon="1.58032">
        <ele>169.431959</ele>
        <time>2022-07-13T15:28:16.231Z</time>
      </trkpt>
      <trkpt lat="43.76509" lon="1.58026">
        <ele>169.300295</ele>
        <time>2022-07-13T15:28:19.163Z</time>
      </trkpt>
      <trkpt lat="43.76542" lon="1.58082">
        <ele>168.757929</ele>
        <time>2022-07-13T15:28:31.313Z</time>
      </trkpt>
      <trkpt lat="43.76576" lon="1.5821">
        <ele>167.092278</ele>
        <time>2022-07-13T15:28:52.997Z</time>
      </trkpt>
      <trkpt lat="43.76652" lon="1.58322">
        <ele>164.672321</ele>
        <time>2022-07-13T15:29:16.678Z</time>
      </trkpt>
      <trkpt lat="43.76665" lon="1.58352">
        <ele>164.107853</ele>
        <time>2022-07-13T15:29:22.087Z</time>
      </trkpt>
      <trkpt lat="43.76675" lon="1.58384">
        <ele>163.50592</ele>
        <time>2022-07-13T15:29:27.846Z</time>
      </trkpt>
      <trkpt lat="43.76707" lon="1.58425">
        <ele>162.477551</ele>
        <time>2022-07-13T15:29:37.614Z</time>
      </trkpt>
      <trkpt lat="43.7674" lon="1.58493">
        <ele>161.079223</ele>
        <time>2022-07-13T15:29:50.382Z</time>
      </trkpt>
      <trkpt lat="43.76771" lon="1.58557">
        <ele>159.312004</ele>
        <time>2022-07-13T15:30:02.031Z</time>
      </trkpt>
      <trkpt lat="43.76779" lon="1.586">
        <ele>157.748117</ele>
        <time>2022-07-13T15:30:08.428Z</time>
      </trkpt>
      <trkpt lat="43.76771" lon="1.58734">
        <ele>153.02745</ele>
        <time>2022-07-13T15:30:26.947Z</time>
      </trkpt>
      <trkpt lat="43.76746" lon="1.58868">
        <ele>149.86048</ele>
        <time>2022-07-13T15:30:45.493Z</time>
      </trkpt>
      <trkpt lat="43.76744" lon="1.5888">
        <ele>149.65506</ele>
        <time>2022-07-13T15:30:47.362Z</time>
      </trkpt>
      <trkpt lat="43.76739" lon="1.58871">
        <ele>149.477567</ele>
        <time>2022-07-13T15:30:49.070Z</time>
      </trkpt>
      <trkpt lat="43.76744" lon="1.5888">
        <ele>149.300074</ele>
        <time>2022-07-13T15:30:50.576Z</time>
      </trkpt>
      <trkpt lat="43.76773" lon="1.58926">
        <ele>148.265429</ele>
        <time>2022-07-13T15:31:00.462Z</time>
      </trkpt>
      <trkpt lat="43.76803" lon="1.58959">
        <ele>147.386659</ele>
        <time>2022-07-13T15:31:09.914Z</time>
      </trkpt>
      <trkpt lat="43.76903" lon="1.58803">
        <ele>153.461834</ele>
        <time>2022-07-13T15:31:52.477Z</time>
      </trkpt>
      <trkpt lat="43.7703" lon="1.58673">
        <ele>159.502964</ele>
        <time>2022-07-13T15:32:37.795Z</time>
      </trkpt>
      <trkpt lat="43.77053" lon="1.58662">
        <ele>160.369503</ele>
        <time>2022-07-13T15:32:43.764Z</time>
      </trkpt>
      <trkpt lat="43.77112" lon="1.58612">
        <ele>161.627282</ele>
        <time>2022-07-13T15:33:01.183Z</time>
      </trkpt>
      <trkpt lat="43.7716" lon="1.58556">
        <ele>161.689864</ele>
        <time>2022-07-13T15:33:16.134Z</time>
      </trkpt>
      <trkpt lat="43.772" lon="1.58544">
        <ele>161.731265</ele>
        <time>2022-07-13T15:33:25.967Z</time>
      </trkpt>
      <trkpt lat="43.77346" lon="1.58389">
        <ele>161.402907</ele>
        <time>2022-07-13T15:34:10.048Z</time>
      </trkpt>
      <trkpt lat="43.7743" lon="1.58294">
        <ele>161.340502</ele>
        <time>2022-07-13T15:34:36.459Z</time>
      </trkpt>
      <trkpt lat="43.77459" lon="1.5826">
        <ele>161.355096</ele>
        <time>2022-07-13T15:34:45.661Z</time>
      </trkpt>
      <trkpt lat="43.77519" lon="1.5819">
        <ele>161.31059</ele>
        <time>2022-07-13T15:35:04.443Z</time>
      </trkpt>
      <trkpt lat="43.77548" lon="1.58155">
        <ele>161.024666</ele>
        <time>2022-07-13T15:35:13.615Z</time>
      </trkpt>
      <trkpt lat="43.77619" lon="1.5807">
        <ele>160.324407</ele>
        <time>2022-07-13T15:35:35.710Z</time>
      </trkpt>
      <trkpt lat="43.77663" lon="1.58035">
        <ele>159.881335</ele>
        <time>2022-07-13T15:35:47.553Z</time>
      </trkpt>
      <trkpt lat="43.77701" lon="1.57993">
        <ele>159.267328</ele>
        <time>2022-07-13T15:35:59.143Z</time>
      </trkpt>
      <trkpt lat="43.778" lon="1.57847">
        <ele>156.742042</ele>
        <time>2022-07-13T15:36:32.343Z</time>
      </trkpt>
      <trkpt lat="43.77814" lon="1.57796">
        <ele>155.166745</ele>
        <time>2022-07-13T15:36:40.425Z</time>
      </trkpt>
      <trkpt lat="43.77825" lon="1.57751">
        <ele>153.801596</ele>
        <time>2022-07-13T15:36:47.226Z</time>
      </trkpt>
      <trkpt lat="43.7784" lon="1.57752">
        <ele>153.214712</ele>
        <time>2022-07-13T15:36:50.111Z</time>
      </trkpt>
      <trkpt lat="43.77848" lon="1.57745">
        <ele>152.828236</ele>
        <time>2022-07-13T15:36:52.042Z</time>
      </trkpt>
      <trkpt lat="43.77883" lon="1.57722">
        <ele>151.307034</ele>
        <time>2022-07-13T15:36:59.449Z</time>
      </trkpt>
      <trkpt lat="43.7789" lon="1.57707">
        <ele>150.778812</ele>
        <time>2022-07-13T15:37:01.949Z</time>
      </trkpt>
      <trkpt lat="43.77927" lon="1.57673">
        <ele>148.08014</ele>
        <time>2022-07-13T15:37:09.955Z</time>
      </trkpt>
      <trkpt lat="43.77965" lon="1.57644">
        <ele>145.298276</ele>
        <time>2022-07-13T15:37:17.725Z</time>
      </trkpt>
      <trkpt lat="43.77974" lon="1.57642">
        <ele>144.70333</ele>
        <time>2022-07-13T15:37:19.401Z</time>
      </trkpt>
      <trkpt lat="43.78009" lon="1.57664">
        <ele>142.261735</ele>
        <time>2022-07-13T15:37:26.322Z</time>
      </trkpt>
      <trkpt lat="43.78049" lon="1.5765">
        <ele>139.661181</ele>
        <time>2022-07-13T15:37:34.160Z</time>
      </trkpt>
      <trkpt lat="43.78072" lon="1.57711">
        <ele>137.685649</ele>
        <time>2022-07-13T15:37:44.065Z</time>
      </trkpt>
      <trkpt lat="43.7808" lon="1.577">
        <ele>137.294423</ele>
        <time>2022-07-13T15:37:46.334Z</time>
      </trkpt>
      <trkpt lat="43.78123" lon="1.57604">
        <ele>134.430508</ele>
        <time>2022-07-13T15:38:02.783Z</time>
      </trkpt>
      <trkpt lat="43.7811" lon="1.57541">
        <ele>132.796133</ele>
        <time>2022-07-13T15:38:12.882Z</time>
      </trkpt>
      <trkpt lat="43.78145" lon="1.57485">
        <ele>131.83295</ele>
        <time>2022-07-13T15:38:24.697Z</time>
      </trkpt>
      <trkpt lat="43.78208" lon="1.5753">
        <ele>130.536809</ele>
        <time>2022-07-13T15:38:40.727Z</time>
      </trkpt>
      <trkpt lat="43.7824" lon="1.57549">
        <ele>129.914655</ele>
        <time>2022-07-13T15:38:48.330Z</time>
      </trkpt>
      <trkpt lat="43.78265" lon="1.57547">
        <ele>129.521603</ele>
        <time>2022-07-13T15:38:53.900Z</time>
      </trkpt>
      <trkpt lat="43.78308" lon="1.57508">
        <ele>129.163705</ele>
        <time>2022-07-13T15:39:05.691Z</time>
      </trkpt>
      <trkpt lat="43.78327" lon="1.57506">
        <ele>129.034703</ele>
        <time>2022-07-13T15:39:10.077Z</time>
      </trkpt>
      <trkpt lat="43.78353" lon="1.57516">
        <ele>128.849744</ele>
        <time>2022-07-13T15:39:16.500Z</time>
      </trkpt>
      <trkpt lat="43.78386" lon="1.57495">
        <ele>128.599026</ele>
        <time>2022-07-13T15:39:25.258Z</time>
      </trkpt>
      <trkpt lat="43.78406" lon="1.57464">
        <ele>128.39145</ele>
        <time>2022-07-13T15:39:32.596Z</time>
      </trkpt>
      <trkpt lat="43.78435" lon="1.57459">
        <ele>128.256164</ele>
        <time>2022-07-13T15:39:39.584Z</time>
      </trkpt>
      <trkpt lat="43.7846" lon="1.57434">
        <ele>128.146584</ele>
        <time>2022-07-13T15:39:47.144Z</time>
      </trkpt>
      <trkpt lat="43.78507" lon="1.57429">
        <ele>127.980561</ele>
        <time>2022-07-13T15:39:58.598Z</time>
      </trkpt>
      <trkpt lat="43.78544" lon="1.5743">
        <ele>127.850257</ele>
        <time>2022-07-13T15:40:07.479Z</time>
      </trkpt>
      <trkpt lat="43.78604" lon="1.57419">
        <ele>127.356745</ele>
        <time>2022-07-13T15:40:21.354Z</time>
      </trkpt>
      <trkpt lat="43.78627" lon="1.57422">
        <ele>126.810927</ele>
        <time>2022-07-13T15:40:26.334Z</time>
      </trkpt>
      <trkpt lat="43.78668" lon="1.57448">
        <ele>125.774853</ele>
        <time>2022-07-13T15:40:35.905Z</time>
      </trkpt>
      <trkpt lat="43.78705" lon="1.57462">
        <ele>124.866987</ele>
        <time>2022-07-13T15:40:44.212Z</time>
      </trkpt>
      <trkpt lat="43.78727" lon="1.57465">
        <ele>124.37035</ele>
        <time>2022-07-13T15:40:48.641Z</time>
      </trkpt>
      <trkpt lat="43.78764" lon="1.57455">
        <ele>123.496388</ele>
        <time>2022-07-13T15:40:56.724Z</time>
      </trkpt>
      <trkpt lat="43.78796" lon="1.57385">
        <ele>122.450963</ele>
        <time>2022-07-13T15:41:04.314Z</time>
      </trkpt>
      <trkpt lat="43.78799" lon="1.57315">
        <ele>121.563947</ele>
        <time>2022-07-13T15:41:15.199Z</time>
      </trkpt>
      <trkpt lat="43.78855" lon="1.57181">
        <ele>120.14731</ele>
        <time>2022-07-13T15:41:41.832Z</time>
      </trkpt>
      <trkpt lat="43.78948" lon="1.56992">
        <ele>119.005623</ele>
        <time>2022-07-13T15:42:21.384Z</time>
      </trkpt>
      <trkpt lat="43.78986" lon="1.56936">
        <ele>118.1124</ele>
        <time>2022-07-13T15:42:34.238Z</time>
      </trkpt>
      <trkpt lat="43.7903" lon="1.56846">
        <ele>116.835879</ele>
        <time>2022-07-13T15:42:51.396Z</time>
      </trkpt>
      <trkpt lat="43.79063" lon="1.56884">
        <ele>115.718398</ele>
        <time>2022-07-13T15:43:00.282Z</time>
      </trkpt>
      <trkpt lat="43.79226" lon="1.56999">
        <ele>110.002194</ele>
        <time>2022-07-13T15:43:37.536Z</time>
      </trkpt>
      <trkpt lat="43.79281" lon="1.57043">
        <ele>108.761388</ele>
        <time>2022-07-13T15:43:51.263Z</time>
      </trkpt>
      <trkpt lat="43.79297" lon="1.57066">
        <ele>108.318816</ele>
        <time>2022-07-13T15:43:56.359Z</time>
      </trkpt>
      <trkpt lat="43.79346" lon="1.57071">
        <ele>107.365106</ele>
        <time>2022-07-13T15:44:03.379Z</time>
      </trkpt>
      <trkpt lat="43.79429" lon="1.57065">
        <ele>106.885199</ele>
        <time>2022-07-13T15:44:16.296Z</time>
      </trkpt>
      <trkpt lat="43.79466" lon="1.57093">
        <ele>106.773364</ele>
        <time>2022-07-13T15:44:23.004Z</time>
      </trkpt>
      <trkpt lat="43.79512" lon="1.57096">
        <ele>106.65422</ele>
        <time>2022-07-13T15:44:30.227Z</time>
      </trkpt>
      <trkpt lat="43.79605" lon="1.57162">
        <ele>106.492372</ele>
        <time>2022-07-13T15:44:46.962Z</time>
      </trkpt>
      <trkpt lat="43.79633" lon="1.57172">
        <ele>106.45766</ele>
        <time>2022-07-13T15:44:51.533Z</time>
      </trkpt>
      <trkpt lat="43.7967" lon="1.572">
        <ele>106.406373</ele>
        <time>2022-07-13T15:44:58.298Z</time>
      </trkpt>
      <trkpt lat="43.79692" lon="1.57198">
        <ele>106.379674</ele>
        <time>2022-07-13T15:45:01.805Z</time>
      </trkpt>
      <trkpt lat="43.79791" lon="1.57162">
        <ele>106.164166</ele>
        <time>2022-07-13T15:45:17.941Z</time>
      </trkpt>
      <trkpt lat="43.79804" lon="1.57178">
        <ele>106.125786</ele>
        <time>2022-07-13T15:45:20.698Z</time>
      </trkpt>
      <trkpt lat="43.79836" lon="1.57291">
        <ele>105.936307</ele>
        <time>2022-07-13T15:45:34.267Z</time>
      </trkpt>
      <trkpt lat="43.7988" lon="1.57394">
        <ele>105.750648</ele>
        <time>2022-07-13T15:45:47.714Z</time>
      </trkpt>
      <trkpt lat="43.79907" lon="1.5743">
        <ele>105.669321</ele>
        <time>2022-07-13T15:45:53.636Z</time>
      </trkpt>
      <trkpt lat="43.79927" lon="1.57436">
        <ele>105.626062</ele>
        <time>2022-07-13T15:45:56.762Z</time>
      </trkpt>
      <trkpt lat="43.79927" lon="1.57419">
        <ele>105.600013</ele>
        <time>2022-07-13T15:45:58.559Z</time>
      </trkpt>
      <trkpt lat="43.79937" lon="1.57409">
        <ele>105.592854</ele>
        <time>2022-07-13T15:46:01.461Z</time>
      </trkpt>
      <trkpt lat="43.79968" lon="1.57338">
        <ele>105.583819</ele>
        <time>2022-07-13T15:46:15.999Z</time>
      </trkpt>
      <trkpt lat="43.79997" lon="1.57303">
        <ele>105.578168</ele>
        <time>2022-07-13T15:46:25.111Z</time>
      </trkpt>
      <trkpt lat="43.80023" lon="1.5728">
        <ele>105.573477</ele>
        <time>2022-07-13T15:46:32.703Z</time>
      </trkpt>
      <trkpt lat="43.80092" lon="1.57238">
        <ele>105.64541</ele>
        <time>2022-07-13T15:46:50.951Z</time>
      </trkpt>
      <trkpt lat="43.80078" lon="1.57167">
        <ele>105.765379</ele>
        <time>2022-07-13T15:47:03.905Z</time>
      </trkpt>
      <trkpt lat="43.80167" lon="1.57075">
        <ele>106.053331</ele>
        <time>2022-07-13T15:47:30.961Z</time>
      </trkpt>
      <trkpt lat="43.80194" lon="1.57062">
        <ele>106.173162</ele>
        <time>2022-07-13T15:47:37.890Z</time>
      </trkpt>
      <trkpt lat="43.80242" lon="1.56938">
        <ele>106.602925</ele>
        <time>2022-07-13T15:48:02.910Z</time>
      </trkpt>
      <trkpt lat="43.80256" lon="1.56858">
        <ele>106.703494</ele>
        <time>2022-07-13T15:48:17.496Z</time>
      </trkpt>
      <trkpt lat="43.80302" lon="1.56731">
        <ele>106.596384</ele>
        <time>2022-07-13T15:48:42.076Z</time>
      </trkpt>
      <trkpt lat="43.80378" lon="1.56803">
        <ele>106.278242</ele>
        <time>2022-07-13T15:48:56.169Z</time>
      </trkpt>
      <trkpt lat="43.8044" lon="1.5689">
        <ele>105.74131</ele>
        <time>2022-07-13T15:49:09.026Z</time>
      </trkpt>
      <trkpt lat="43.80497" lon="1.57015">
        <ele>105.294663</ele>
        <time>2022-07-13T15:49:25.235Z</time>
      </trkpt>
      <trkpt lat="43.80565" lon="1.57142">
        <ele>104.992938</ele>
        <time>2022-07-13T15:49:43.165Z</time>
      </trkpt>
      <trkpt lat="43.80624" lon="1.57267">
        <ele>105.044471</ele>
        <time>2022-07-13T15:50:00.406Z</time>
      </trkpt>
      <trkpt lat="43.80658" lon="1.57343">
        <ele>105.089574</ele>
        <time>2022-07-13T15:50:10.768Z</time>
      </trkpt>
      <trkpt lat="43.80666" lon="1.57355">
        <ele>105.097661</ele>
        <time>2022-07-13T15:50:12.637Z</time>
      </trkpt>
      <trkpt lat="43.80828" lon="1.56847">
        <ele>105.286325</ele>
        <time>2022-07-13T15:51:49.430Z</time>
      </trkpt>
      <trkpt lat="43.8082" lon="1.5684">
        <ele>105.251707</ele>
        <time>2022-07-13T15:51:50.870Z</time>
      </trkpt>
      <trkpt lat="43.80848" lon="1.56757">
        <ele>105.001918</ele>
        <time>2022-07-13T15:52:06.623Z</time>
      </trkpt>
      <trkpt lat="43.80861" lon="1.56744">
        <ele>104.941559</ele>
        <time>2022-07-13T15:52:10.435Z</time>
      </trkpt>
      <trkpt lat="43.80915" lon="1.56578">
        <ele>104.278888</ele>
        <time>2022-07-13T15:52:41.781Z</time>
      </trkpt>
      <trkpt lat="43.80965" lon="1.56406">
        <ele>103.634225</ele>
        <time>2022-07-13T15:53:13.667Z</time>
      </trkpt>
      <trkpt lat="43.80976" lon="1.56351">
        <ele>103.549734</ele>
        <time>2022-07-13T15:53:23.435Z</time>
      </trkpt>
      <trkpt lat="43.81172" lon="1.55524">
        <ele>102.301227</ele>
        <time>2022-07-13T15:55:54.316Z</time>
      </trkpt>
      <trkpt lat="43.81213" lon="1.55371">
        <ele>102.131116</ele>
        <time>2022-07-13T15:56:11.854Z</time>
      </trkpt>
      <trkpt lat="43.81303" lon="1.54979">
        <ele>101.846382</ele>
        <time>2022-07-13T15:56:56.471Z</time>
      </trkpt>
      <trkpt lat="43.81344" lon="1.54846">
        <ele>101.844912</ele>
        <time>2022-07-13T15:57:12.941Z</time>
      </trkpt>
      <trkpt lat="43.81393" lon="1.54738">
        <ele>101.855786</ele>
        <time>2022-07-13T15:57:27.358Z</time>
      </trkpt>
      <trkpt lat="43.814" lon="1.54724">
        <ele>101.85828</ele>
        <time>2022-07-13T15:57:29.199Z</time>
      </trkpt>
      <trkpt lat="43.8146" lon="1.54626">
        <ele>101.877216</ele>
        <time>2022-07-13T15:57:43.292Z</time>
      </trkpt>
      <trkpt lat="43.81587" lon="1.54461">
        <ele>101.849401</ele>
        <time>2022-07-13T15:58:09.870Z</time>
      </trkpt>
      <trkpt lat="43.8161" lon="1.5449">
        <ele>101.846496</ele>
        <time>2022-07-13T15:58:14.798Z</time>
      </trkpt>
      <trkpt lat="43.81624" lon="1.54529">
        <ele>101.856166</ele>
        <time>2022-07-13T15:58:19.807Z</time>
      </trkpt>
      <trkpt lat="43.81633" lon="1.5453">
        <ele>101.859166</ele>
        <time>2022-07-13T15:58:21.364Z</time>
      </trkpt>
      <trkpt lat="43.8164" lon="1.54519">
        <ele>101.862362</ele>
        <time>2022-07-13T15:58:23.017Z</time>
      </trkpt>
      <trkpt lat="43.81817" lon="1.54262">
        <ele>101.58722</ele>
        <time>2022-07-13T15:59:02.117Z</time>
      </trkpt>
      <trkpt lat="43.81828" lon="1.54251">
        <ele>101.554575</ele>
        <time>2022-07-13T15:59:04.063Z</time>
      </trkpt>
      <trkpt lat="43.81861" lon="1.54239">
        <ele>101.467092</ele>
        <time>2022-07-13T15:59:08.775Z</time>
      </trkpt>
      <trkpt lat="43.81887" lon="1.54246">
        <ele>101.283589</ele>
        <time>2022-07-13T15:59:12.488Z</time>
      </trkpt>
      <trkpt lat="43.81896" lon="1.54255">
        <ele>101.207029</ele>
        <time>2022-07-13T15:59:13.984Z</time>
      </trkpt>
      <trkpt lat="43.81943" lon="1.54304">
        <ele>100.80171</ele>
        <time>2022-07-13T15:59:21.972Z</time>
      </trkpt>
      <trkpt lat="43.82071" lon="1.54431">
        <ele>100.415389</ele>
        <time>2022-07-13T15:59:44.356Z</time>
      </trkpt>
      <trkpt lat="43.8231" lon="1.54667">
        <ele>102.117251</ele>
        <time>2022-07-13T16:00:33.154Z</time>
      </trkpt>
      <trkpt lat="43.82312" lon="1.54683">
        <ele>102.169245</ele>
        <time>2022-07-13T16:00:35.118Z</time>
      </trkpt>
      <trkpt lat="43.82323" lon="1.54684">
        <ele>102.217371</ele>
        <time>2022-07-13T16:00:36.919Z</time>
      </trkpt>
      <trkpt lat="43.82325" lon="1.54681">
        <ele>102.228941</ele>
        <time>2022-07-13T16:00:37.354Z</time>
      </trkpt>
      <trkpt lat="43.82506" lon="1.5486">
        <ele>103.032196</ele>
        <time>2022-07-13T16:01:12.965Z</time>
      </trkpt>
      <trkpt lat="43.82582" lon="1.54916">
        <ele>103.228901</ele>
        <time>2022-07-13T16:01:26.703Z</time>
      </trkpt>
      <trkpt lat="43.82849" lon="1.55114">
        <ele>103.201486</ele>
        <time>2022-07-13T16:02:13.305Z</time>
      </trkpt>
      <trkpt lat="43.82799" lon="1.55212">
        <ele>103.107824</ele>
        <time>2022-07-13T16:02:26.885Z</time>
      </trkpt>
      <trkpt lat="43.8272" lon="1.55456">
        <ele>102.799129</ele>
        <time>2022-07-13T16:02:57.200Z</time>
      </trkpt>
      <trkpt lat="43.82704" lon="1.55462">
        <ele>102.799226</ele>
        <time>2022-07-13T16:02:59.915Z</time>
      </trkpt>
      <trkpt lat="43.82685" lon="1.55451">
        <ele>102.799348</ele>
        <time>2022-07-13T16:03:03.324Z</time>
      </trkpt>
      <trkpt lat="43.82671" lon="1.5545">
        <ele>102.799425</ele>
        <time>2022-07-13T16:03:05.481Z</time>
      </trkpt>
      <trkpt lat="43.82625" lon="1.5553">
        <ele>102.799848</ele>
        <time>2022-07-13T16:03:17.290Z</time>
      </trkpt>
      <trkpt lat="43.82612" lon="1.55534">
        <ele>102.799928</ele>
        <time>2022-07-13T16:03:19.509Z</time>
      </trkpt>
      <trkpt lat="43.82593" lon="1.55526">
        <ele>102.800003</ele>
        <time>2022-07-13T16:03:22.686Z</time>
      </trkpt>
      <trkpt lat="43.82516" lon="1.55473">
        <ele>102.800003</ele>
        <time>2022-07-13T16:03:36.410Z</time>
      </trkpt>
      <trkpt lat="43.82593" lon="1.55526">
        <ele>102.800003</ele>
        <time>2022-07-13T16:03:50.135Z</time>
      </trkpt>
      <trkpt lat="43.82612" lon="1.55534">
        <ele>102.79951</ele>
        <time>2022-07-13T16:03:53.312Z</time>
      </trkpt>
      <trkpt lat="43.82625" lon="1.5553">
        <ele>102.799134</ele>
        <time>2022-07-13T16:03:55.529Z</time>
      </trkpt>
      <trkpt lat="43.82671" lon="1.5545">
        <ele>102.79713</ele>
        <time>2022-07-13T16:04:07.338Z</time>
      </trkpt>
      <trkpt lat="43.82685" lon="1.55451">
        <ele>102.796765</ele>
        <time>2022-07-13T16:04:09.495Z</time>
      </trkpt>
      <trkpt lat="43.82704" lon="1.55462">
        <ele>102.796185</ele>
        <time>2022-07-13T16:04:12.905Z</time>
      </trkpt>
      <trkpt lat="43.8272" lon="1.55456">
        <ele>102.795726</ele>
        <time>2022-07-13T16:04:15.620Z</time>
      </trkpt>
      <trkpt lat="43.82799" lon="1.55212">
        <ele>103.10747</ele>
        <time>2022-07-13T16:04:46.439Z</time>
      </trkpt>
      <trkpt lat="43.82849" lon="1.55114">
        <ele>103.200323</ele>
        <time>2022-07-13T16:05:00.415Z</time>
      </trkpt>
      <trkpt lat="43.82582" lon="1.54916">
        <ele>103.223343</ele>
        <time>2022-07-13T16:05:46.788Z</time>
      </trkpt>
      <trkpt lat="43.82506" lon="1.5486">
        <ele>103.031784</ele>
        <time>2022-07-13T16:05:59.676Z</time>
      </trkpt>
      <trkpt lat="43.82325" lon="1.54681">
        <ele>102.237904</ele>
        <time>2022-07-13T16:06:32.179Z</time>
      </trkpt>
      <trkpt lat="43.82326" lon="1.54671">
        <ele>102.205826</ele>
        <time>2022-07-13T16:06:33.234Z</time>
      </trkpt>
      <trkpt lat="43.82322" lon="1.54664">
        <ele>102.178592</ele>
        <time>2022-07-13T16:06:34.123Z</time>
      </trkpt>
      <trkpt lat="43.8231" lon="1.54667">
        <ele>102.125639</ele>
        <time>2022-07-13T16:06:35.887Z</time>
      </trkpt>
      <trkpt lat="43.82071" lon="1.54431">
        <ele>100.405311</ele>
        <time>2022-07-13T16:07:16.207Z</time>
      </trkpt>
      <trkpt lat="43.81943" lon="1.54304">
        <ele>100.841336</ele>
        <time>2022-07-13T16:07:41.515Z</time>
      </trkpt>
      <trkpt lat="43.81896" lon="1.54255">
        <ele>101.264481</ele>
        <time>2022-07-13T16:07:51.544Z</time>
      </trkpt>
      <trkpt lat="43.81887" lon="1.54246">
        <ele>101.344408</ele>
        <time>2022-07-13T16:07:53.402Z</time>
      </trkpt>
      <trkpt lat="43.81862" lon="1.5422">
        <ele>101.536747</ele>
        <time>2022-07-13T16:07:58.584Z</time>
      </trkpt>
      <trkpt lat="43.81855" lon="1.54205">
        <ele>101.581491</ele>
        <time>2022-07-13T16:08:00.727Z</time>
      </trkpt>
      <trkpt lat="43.81852" lon="1.54209">
        <ele>101.596651</ele>
        <time>2022-07-13T16:08:01.451Z</time>
      </trkpt>
      <trkpt lat="43.81839" lon="1.54217">
        <ele>101.644068</ele>
        <time>2022-07-13T16:08:03.710Z</time>
      </trkpt>
      <trkpt lat="43.81671" lon="1.54461">
        <ele>102.115433</ele>
        <time>2022-07-13T16:08:42.740Z</time>
      </trkpt>
      <trkpt lat="43.81624" lon="1.54489">
        <ele>102.107676</ele>
        <time>2022-07-13T16:08:50.182Z</time>
      </trkpt>
      <trkpt lat="43.8161" lon="1.5449">
        <ele>102.105473</ele>
        <time>2022-07-13T16:08:52.254Z</time>
      </trkpt>
      <trkpt lat="43.81587" lon="1.54461">
        <ele>102.083961</ele>
        <time>2022-07-13T16:08:56.832Z</time>
      </trkpt>
      <trkpt lat="43.8146" lon="1.54626">
        <ele>101.911359</ele>
        <time>2022-07-13T16:09:23.278Z</time>
      </trkpt>
      <trkpt lat="43.814" lon="1.54724">
        <ele>101.87229</ele>
        <time>2022-07-13T16:09:37.745Z</time>
      </trkpt>
      <trkpt lat="43.81393" lon="1.54738">
        <ele>101.867143</ele>
        <time>2022-07-13T16:09:39.680Z</time>
      </trkpt>
      <trkpt lat="43.81344" lon="1.54846">
        <ele>101.842999</ele>
        <time>2022-07-13T16:09:53.474Z</time>
      </trkpt>
      <trkpt lat="43.81303" lon="1.54979">
        <ele>101.848582</ele>
        <time>2022-07-13T16:10:09.359Z</time>
      </trkpt>
      <trkpt lat="43.81213" lon="1.55371">
        <ele>102.130704</ele>
        <time>2022-07-13T16:10:56.409Z</time>
      </trkpt>
      <trkpt lat="43.81172" lon="1.55524">
        <ele>102.301182</ele>
        <time>2022-07-13T16:11:15.180Z</time>
      </trkpt>
      <trkpt lat="43.80976" lon="1.56351">
        <ele>103.503592</ele>
        <time>2022-07-13T16:13:47.746Z</time>
      </trkpt>
      <trkpt lat="43.80965" lon="1.56406">
        <ele>103.617648</ele>
        <time>2022-07-13T16:13:57.660Z</time>
      </trkpt>
      <trkpt lat="43.80915" lon="1.56578">
        <ele>104.276878</ele>
        <time>2022-07-13T16:14:30.583Z</time>
      </trkpt>
      <trkpt lat="43.80861" lon="1.56744">
        <ele>104.947337</ele>
        <time>2022-07-13T16:15:03.243Z</time>
      </trkpt>
      <trkpt lat="43.80848" lon="1.56757">
        <ele>105.004756</ele>
        <time>2022-07-13T16:15:07.162Z</time>
      </trkpt>
      <trkpt lat="43.8082" lon="1.5684">
        <ele>105.24238</ele>
        <time>2022-07-13T16:15:23.332Z</time>
      </trkpt>
      <trkpt lat="43.80828" lon="1.56847">
        <ele>105.275312</ele>
        <time>2022-07-13T16:15:24.788Z</time>
      </trkpt>
      <trkpt lat="43.80666" lon="1.57355">
        <ele>105.096155</ele>
        <time>2022-07-13T16:17:01.000Z</time>
      </trkpt>
      <trkpt lat="43.80658" lon="1.57343">
        <ele>105.087761</ele>
        <time>2022-07-13T16:17:02.802Z</time>
      </trkpt>
      <trkpt lat="43.80624" lon="1.57267">
        <ele>105.046352</ele>
        <time>2022-07-13T16:17:13.042Z</time>
      </trkpt>
      <trkpt lat="43.80565" lon="1.57142">
        <ele>104.982936</ele>
        <time>2022-07-13T16:17:30.284Z</time>
      </trkpt>
      <trkpt lat="43.80497" lon="1.57015">
        <ele>105.298961</ele>
        <time>2022-07-13T16:17:48.590Z</time>
      </trkpt>
      <trkpt lat="43.8044" lon="1.5689">
        <ele>105.734491</ele>
        <time>2022-07-13T16:18:06.191Z</time>
      </trkpt>
      <trkpt lat="43.80378" lon="1.56803">
        <ele>106.270767</ele>
        <time>2022-07-13T16:18:21.448Z</time>
      </trkpt>
      <trkpt lat="43.80302" lon="1.56731">
        <ele>106.60618</ele>
        <time>2022-07-13T16:18:36.764Z</time>
      </trkpt>
      <trkpt lat="43.80256" lon="1.56858">
        <ele>106.69012</ele>
        <time>2022-07-13T16:19:01.562Z</time>
      </trkpt>
      <trkpt lat="43.80242" lon="1.56938">
        <ele>106.610051</ele>
        <time>2022-07-13T16:19:15.755Z</time>
      </trkpt>
      <trkpt lat="43.80194" lon="1.57062">
        <ele>106.178137</ele>
        <time>2022-07-13T16:19:39.930Z</time>
      </trkpt>
      <trkpt lat="43.80167" lon="1.57075">
        <ele>106.057705</ele>
        <time>2022-07-13T16:19:46.703Z</time>
      </trkpt>
      <trkpt lat="43.80078" lon="1.57167">
        <ele>105.764691</ele>
        <time>2022-07-13T16:20:13.331Z</time>
      </trkpt>
      <trkpt lat="43.80092" lon="1.57238">
        <ele>105.648653</ele>
        <time>2022-07-13T16:20:26.166Z</time>
      </trkpt>
      <trkpt lat="43.80023" lon="1.5728">
        <ele>105.569305</ele>
        <time>2022-07-13T16:20:44.236Z</time>
      </trkpt>
      <trkpt lat="43.79997" lon="1.57303">
        <ele>105.57635</ele>
        <time>2022-07-13T16:20:51.777Z</time>
      </trkpt>
      <trkpt lat="43.79968" lon="1.57338">
        <ele>105.584836</ele>
        <time>2022-07-13T16:21:00.879Z</time>
      </trkpt>
      <trkpt lat="43.79937" lon="1.57409">
        <ele>105.598403</ele>
        <time>2022-07-13T16:21:15.557Z</time>
      </trkpt>
      <trkpt lat="43.79927" lon="1.57419">
        <ele>105.601101</ele>
        <time>2022-07-13T16:21:18.479Z</time>
      </trkpt>
      <trkpt lat="43.79927" lon="1.57436">
        <ele>105.622137</ele>
        <time>2022-07-13T16:21:20.399Z</time>
      </trkpt>
      <trkpt lat="43.79907" lon="1.5743">
        <ele>105.666146</ele>
        <time>2022-07-13T16:21:23.616Z</time>
      </trkpt>
      <trkpt lat="43.7988" lon="1.57394">
        <ele>105.748885</ele>
        <time>2022-07-13T16:21:29.643Z</time>
      </trkpt>
      <trkpt lat="43.79836" lon="1.57291">
        <ele>105.937767</ele>
        <time>2022-07-13T16:21:43.419Z</time>
      </trkpt>
      <trkpt lat="43.79804" lon="1.57178">
        <ele>106.126318</ele>
        <time>2022-07-13T16:21:57.628Z</time>
      </trkpt>
      <trkpt lat="43.79791" lon="1.57162">
        <ele>106.164139</ele>
        <time>2022-07-13T16:22:00.482Z</time>
      </trkpt>
      <trkpt lat="43.79692" lon="1.57198">
        <ele>106.381649</ele>
        <time>2022-07-13T16:22:16.867Z</time>
      </trkpt>
      <trkpt lat="43.7967" lon="1.572">
        <ele>106.408041</ele>
        <time>2022-07-13T16:22:20.409Z</time>
      </trkpt>
      <trkpt lat="43.79633" lon="1.57172">
        <ele>106.458737</ele>
        <time>2022-07-13T16:22:27.223Z</time>
      </trkpt>
      <trkpt lat="43.79605" lon="1.57162">
        <ele>106.49305</ele>
        <time>2022-07-13T16:22:31.829Z</time>
      </trkpt>
      <trkpt lat="43.79512" lon="1.57096">
        <ele>106.649579</ele>
        <time>2022-07-13T16:22:48.629Z</time>
      </trkpt>
      <trkpt lat="43.79466" lon="1.57093">
        <ele>106.777243</ele>
        <time>2022-07-13T16:22:55.873Z</time>
      </trkpt>
      <trkpt lat="43.79429" lon="1.57065">
        <ele>106.897076</ele>
        <time>2022-07-13T16:23:02.669Z</time>
      </trkpt>
      <trkpt lat="43.79346" lon="1.57071">
        <ele>107.307013</ele>
        <time>2022-07-13T16:23:16.057Z</time>
      </trkpt>
      <trkpt lat="43.79297" lon="1.57066">
        <ele>108.297155</ele>
        <time>2022-07-13T16:23:24.766Z</time>
      </trkpt>
      <trkpt lat="43.79281" lon="1.57043">
        <ele>108.756635</ele>
        <time>2022-07-13T16:23:30.547Z</time>
      </trkpt>
      <trkpt lat="43.79226" lon="1.56999">
        <ele>110.044841</ele>
        <time>2022-07-13T16:23:47.033Z</time>
      </trkpt>
      <trkpt lat="43.79063" lon="1.56884">
        <ele>115.693902</ele>
        <time>2022-07-13T16:24:36.246Z</time>
      </trkpt>
      <trkpt lat="43.7903" lon="1.56846">
        <ele>116.892288</ele>
        <time>2022-07-13T16:24:47.476Z</time>
      </trkpt>
      <trkpt lat="43.78986" lon="1.56936">
        <ele>118.116347</ele>
        <time>2022-07-13T16:25:07.566Z</time>
      </trkpt>
      <trkpt lat="43.78948" lon="1.56992">
        <ele>118.972861</ele>
        <time>2022-07-13T16:25:21.306Z</time>
      </trkpt>
      <trkpt lat="43.78855" lon="1.57181">
        <ele>120.159127</ele>
        <time>2022-07-13T16:26:01.797Z</time>
      </trkpt>
      <trkpt lat="43.78799" lon="1.57315">
        <ele>121.54531</ele>
        <time>2022-07-13T16:26:29.418Z</time>
      </trkpt>
      <trkpt lat="43.78796" lon="1.57385">
        <ele>122.460858</ele>
        <time>2022-07-13T16:26:42.488Z</time>
      </trkpt>
      <trkpt lat="43.78764" lon="1.57455">
        <ele>123.539911</ele>
        <time>2022-07-13T16:26:54.314Z</time>
      </trkpt>
      <trkpt lat="43.78727" lon="1.57465">
        <ele>124.371538</ele>
        <time>2022-07-13T16:27:04.135Z</time>
      </trkpt>
      <trkpt lat="43.78705" lon="1.57462">
        <ele>124.858075</ele>
        <time>2022-07-13T16:27:09.748Z</time>
      </trkpt>
      <trkpt lat="43.78668" lon="1.57448">
        <ele>125.747479</ele>
        <time>2022-07-13T16:27:19.906Z</time>
      </trkpt>
      <trkpt lat="43.78627" lon="1.57422">
        <ele>126.762484</ele>
        <time>2022-07-13T16:27:31.411Z</time>
      </trkpt>
      <trkpt lat="43.78604" lon="1.57419">
        <ele>127.297202</ele>
        <time>2022-07-13T16:27:37.525Z</time>
      </trkpt>
      <trkpt lat="43.78544" lon="1.5743">
        <ele>127.789693</ele>
        <time>2022-07-13T16:27:52.560Z</time>
      </trkpt>
      <trkpt lat="43.78507" lon="1.57429">
        <ele>127.828814</ele>
        <time>2022-07-13T16:28:01.437Z</time>
      </trkpt>
      <trkpt lat="43.78492" lon="1.57399">
        <ele>127.856668</ele>
        <time>2022-07-13T16:28:07.731Z</time>
      </trkpt>
      <trkpt lat="43.78474" lon="1.57384">
        <ele>127.879164</ele>
        <time>2022-07-13T16:28:12.820Z</time>
      </trkpt>
      <trkpt lat="43.78464" lon="1.57346">
        <ele>127.910612</ele>
        <time>2022-07-13T16:28:19.931Z</time>
      </trkpt>
      <trkpt lat="43.7847" lon="1.57302">
        <ele>127.932853</ele>
        <time>2022-07-13T16:28:27.583Z</time>
      </trkpt>
      <trkpt lat="43.78457" lon="1.5727">
        <ele>127.914251</ele>
        <time>2022-07-13T16:28:33.981Z</time>
      </trkpt>
      <trkpt lat="43.78459" lon="1.57226">
        <ele>127.892375</ele>
        <time>2022-07-13T16:28:41.497Z</time>
      </trkpt>
      <trkpt lat="43.7845" lon="1.57185">
        <ele>127.870493</ele>
        <time>2022-07-13T16:28:49.037Z</time>
      </trkpt>
      <trkpt lat="43.78468" lon="1.57164">
        <ele>127.854164</ele>
        <time>2022-07-13T16:28:54.683Z</time>
      </trkpt>
      <trkpt lat="43.78476" lon="1.57136">
        <ele>127.839292</ele>
        <time>2022-07-13T16:28:59.869Z</time>
      </trkpt>
      <trkpt lat="43.78462" lon="1.57121">
        <ele>127.827042</ele>
        <time>2022-07-13T16:29:04.172Z</time>
      </trkpt>
      <trkpt lat="43.78445" lon="1.57116">
        <ele>127.814916</ele>
        <time>2022-07-13T16:29:08.516Z</time>
      </trkpt>
      <trkpt lat="43.78431" lon="1.57094">
        <ele>128.101483</ele>
        <time>2022-07-13T16:29:13.685Z</time>
      </trkpt>
      <trkpt lat="43.78395" lon="1.57071">
        <ele>128.771069</ele>
        <time>2022-07-13T16:29:23.848Z</time>
      </trkpt>
      <trkpt lat="43.78373" lon="1.57066">
        <ele>129.133086</ele>
        <time>2022-07-13T16:29:29.379Z</time>
      </trkpt>
      <trkpt lat="43.78365" lon="1.57031">
        <ele>129.565655</ele>
        <time>2022-07-13T16:29:36.039Z</time>
      </trkpt>
      <trkpt lat="43.78367" lon="1.57013">
        <ele>129.788759</ele>
        <time>2022-07-13T16:29:39.508Z</time>
      </trkpt>
      <trkpt lat="43.78359" lon="1.56996">
        <ele>130.0234</ele>
        <time>2022-07-13T16:29:43.167Z</time>
      </trkpt>
      <trkpt lat="43.78355" lon="1.57001">
        <ele>130.119115</ele>
        <time>2022-07-13T16:29:44.631Z</time>
      </trkpt>
      <trkpt lat="43.78354" lon="1.57001">
        <ele>130.131646</ele>
        <time>2022-07-13T16:29:44.841Z</time>
      </trkpt>
      <trkpt lat="43.78353" lon="1.56999">
        <ele>130.167039</ele>
        <time>2022-07-13T16:29:45.392Z</time>
      </trkpt>
      <trkpt lat="43.78331" lon="1.56984">
        <ele>130.572004</ele>
        <time>2022-07-13T16:29:51.694Z</time>
      </trkpt>
      <trkpt lat="43.78275" lon="1.56945">
        <ele>131.822921</ele>
        <time>2022-07-13T16:30:07.639Z</time>
      </trkpt>
      <trkpt lat="43.78266" lon="1.56918">
        <ele>132.282695</ele>
        <time>2022-07-13T16:30:13.220Z</time>
      </trkpt>
      <trkpt lat="43.78254" lon="1.56893">
        <ele>132.739928</ele>
        <time>2022-07-13T16:30:18.800Z</time>
      </trkpt>
      <trkpt lat="43.78212" lon="1.56875">
        <ele>133.66345</ele>
        <time>2022-07-13T16:30:29.976Z</time>
      </trkpt>
      <trkpt lat="43.78199" lon="1.56856">
        <ele>134.067093</ele>
        <time>2022-07-13T16:30:34.876Z</time>
      </trkpt>
      <trkpt lat="43.78152" lon="1.56815">
        <ele>135.052879</ele>
        <time>2022-07-13T16:30:49.048Z</time>
      </trkpt>
      <trkpt lat="43.78121" lon="1.56788">
        <ele>135.589935</ele>
        <time>2022-07-13T16:30:58.160Z</time>
      </trkpt>
      <trkpt lat="43.78095" lon="1.56784">
        <ele>135.983651</ele>
        <time>2022-07-13T16:31:04.757Z</time>
      </trkpt>
      <trkpt lat="43.78075" lon="1.56771">
        <ele>136.310388</ele>
        <time>2022-07-13T16:31:10.287Z</time>
      </trkpt>
      <trkpt lat="43.78079" lon="1.56757">
        <ele>136.478743</ele>
        <time>2022-07-13T16:31:13.061Z</time>
      </trkpt>
      <trkpt lat="43.77922" lon="1.56713">
        <ele>139.208125</ele>
        <time>2022-07-13T16:31:53.627Z</time>
      </trkpt>
      <trkpt lat="43.7788" lon="1.56693">
        <ele>140.013441</ele>
        <time>2022-07-13T16:32:05.044Z</time>
      </trkpt>
      <trkpt lat="43.77872" lon="1.56672">
        <ele>140.315701</ele>
        <time>2022-07-13T16:32:08.803Z</time>
      </trkpt>
      <trkpt lat="43.77867" lon="1.56679">
        <ele>140.443253</ele>
        <time>2022-07-13T16:32:10.391Z</time>
      </trkpt>
      <trkpt lat="43.77872" lon="1.5669">
        <ele>140.672405</ele>
        <time>2022-07-13T16:32:12.429Z</time>
      </trkpt>
      <trkpt lat="43.77857" lon="1.56699">
        <ele>141.189997</ele>
        <time>2022-07-13T16:32:16.792Z</time>
      </trkpt>
      <trkpt lat="43.77744" lon="1.56647">
        <ele>144.859889</ele>
        <time>2022-07-13T16:32:47.917Z</time>
      </trkpt>
      <trkpt lat="43.7756" lon="1.56596">
        <ele>151.341539</ele>
        <time>2022-07-13T16:33:38.584Z</time>
      </trkpt>
      <trkpt lat="43.77518" lon="1.56579">
        <ele>152.847973</ele>
        <time>2022-07-13T16:33:49.993Z</time>
      </trkpt>
      <trkpt lat="43.77464" lon="1.56546">
        <ele>154.850636</ele>
        <time>2022-07-13T16:34:05.643Z</time>
      </trkpt>
      <trkpt lat="43.7741" lon="1.56511">
        <ele>156.860456</ele>
        <time>2022-07-13T16:34:18.331Z</time>
      </trkpt>
      <trkpt lat="43.77374" lon="1.56464">
        <ele>158.520722</ele>
        <time>2022-07-13T16:34:28.522Z</time>
      </trkpt>
      <trkpt lat="43.77344" lon="1.56535">
        <ele>160.265091</ele>
        <time>2022-07-13T16:34:44.280Z</time>
      </trkpt>
      <trkpt lat="43.77331" lon="1.56548">
        <ele>160.748061</ele>
        <time>2022-07-13T16:34:48.521Z</time>
      </trkpt>
      <trkpt lat="43.77256" lon="1.56586">
        <ele>163.110739</ele>
        <time>2022-07-13T16:35:09.524Z</time>
      </trkpt>
      <trkpt lat="43.77196" lon="1.5661">
        <ele>163.990417</ele>
        <time>2022-07-13T16:35:25.572Z</time>
      </trkpt>
      <trkpt lat="43.77136" lon="1.5662">
        <ele>164.230932</ele>
        <time>2022-07-13T16:35:40.617Z</time>
      </trkpt>
      <trkpt lat="43.77114" lon="1.56621">
        <ele>164.321623</ele>
        <time>2022-07-13T16:35:46.085Z</time>
      </trkpt>
      <trkpt lat="43.77067" lon="1.56603">
        <ele>164.511954</ele>
        <time>2022-07-13T16:35:57.194Z</time>
      </trkpt>
      <trkpt lat="43.77057" lon="1.56623">
        <ele>164.495611</ele>
        <time>2022-07-13T16:36:01.088Z</time>
      </trkpt>
      <trkpt lat="43.76969" lon="1.56582">
        <ele>163.513116</ele>
        <time>2022-07-13T16:36:21.926Z</time>
      </trkpt>
      <trkpt lat="43.76943" lon="1.56575">
        <ele>163.234313</ele>
        <time>2022-07-13T16:36:28.033Z</time>
      </trkpt>
      <trkpt lat="43.76912" lon="1.56555">
        <ele>162.870631</ele>
        <time>2022-07-13T16:36:36.180Z</time>
      </trkpt>
      <trkpt lat="43.76867" lon="1.56515">
        <ele>162.996015</ele>
        <time>2022-07-13T16:36:48.987Z</time>
      </trkpt>
      <trkpt lat="43.76812" lon="1.56443">
        <ele>163.762394</ele>
        <time>2022-07-13T16:37:08.054Z</time>
      </trkpt>
      <trkpt lat="43.76718" lon="1.56409">
        <ele>164.579652</ele>
        <time>2022-07-13T16:37:32.753Z</time>
      </trkpt>
      <trkpt lat="43.76704" lon="1.56408">
        <ele>164.634591</ele>
        <time>2022-07-13T16:37:36.249Z</time>
      </trkpt>
      <trkpt lat="43.7667" lon="1.56428">
        <ele>164.781135</ele>
        <time>2022-07-13T16:37:45.543Z</time>
      </trkpt>
      <trkpt lat="43.76628" lon="1.56401">
        <ele>164.959036</ele>
        <time>2022-07-13T16:37:56.675Z</time>
      </trkpt>
      <trkpt lat="43.76617" lon="1.56383">
        <ele>165.027233</ele>
        <time>2022-07-13T16:38:00.875Z</time>
      </trkpt>
      <trkpt lat="43.76605" lon="1.56368">
        <ele>165.090597</ele>
        <time>2022-07-13T16:38:04.768Z</time>
      </trkpt>
      <trkpt lat="43.76493" lon="1.56284">
        <ele>164.897822</ele>
        <time>2022-07-13T16:38:35.018Z</time>
      </trkpt>
      <trkpt lat="43.76479" lon="1.56267">
        <ele>164.848393</ele>
        <time>2022-07-13T16:38:39.398Z</time>
      </trkpt>
      <trkpt lat="43.7641" lon="1.56222">
        <ele>164.894759</ele>
        <time>2022-07-13T16:38:51.638Z</time>
      </trkpt>
      <trkpt lat="43.76219" lon="1.56149">
        <ele>167.097923</ele>
        <time>2022-07-13T16:39:27.143Z</time>
      </trkpt>
      <trkpt lat="43.76198" lon="1.56133">
        <ele>167.473611</ele>
        <time>2022-07-13T16:39:31.628Z</time>
      </trkpt>
      <trkpt lat="43.76057" lon="1.55953">
        <ele>170.462625</ele>
        <time>2022-07-13T16:40:07.566Z</time>
      </trkpt>
      <trkpt lat="43.7604" lon="1.55924">
        <ele>170.887189</ele>
        <time>2022-07-13T16:40:12.659Z</time>
      </trkpt>
      <trkpt lat="43.76006" lon="1.55841">
        <ele>171.942334</ele>
        <time>2022-07-13T16:40:25.181Z</time>
      </trkpt>
      <trkpt lat="43.75983" lon="1.55809">
        <ele>172.59603</ele>
        <time>2022-07-13T16:40:31.050Z</time>
      </trkpt>
      <trkpt lat="43.75914" lon="1.55749">
        <ele>174.417622</ele>
        <time>2022-07-13T16:40:46.040Z</time>
      </trkpt>
      <trkpt lat="43.75849" lon="1.55705">
        <ele>176.02001</ele>
        <time>2022-07-13T16:41:00.430Z</time>
      </trkpt>
      <trkpt lat="43.75775" lon="1.55652">
        <ele>179.68255</ele>
        <time>2022-07-13T16:41:19.610Z</time>
      </trkpt>
      <trkpt lat="43.75744" lon="1.55632">
        <ele>181.178555</ele>
        <time>2022-07-13T16:41:27.789Z</time>
      </trkpt>
      <trkpt lat="43.75685" lon="1.55615">
        <ele>183.89799</ele>
        <time>2022-07-13T16:41:41.771Z</time>
      </trkpt>
      <trkpt lat="43.75667" lon="1.55599">
        <ele>184.108857</ele>
        <time>2022-07-13T16:41:46.484Z</time>
      </trkpt>
      <trkpt lat="43.75622" lon="1.55528">
        <ele>183.905096</ele>
        <time>2022-07-13T16:41:59.784Z</time>
      </trkpt>
      <trkpt lat="43.75639" lon="1.55496">
        <ele>183.820773</ele>
        <time>2022-07-13T16:42:03.979Z</time>
      </trkpt>
      <trkpt lat="43.75643" lon="1.55491">
        <ele>183.803813</ele>
        <time>2022-07-13T16:42:04.833Z</time>
      </trkpt>
      <trkpt lat="43.75648" lon="1.55485">
        <ele>183.785238</ele>
        <time>2022-07-13T16:42:05.670Z</time>
      </trkpt>
      <trkpt lat="43.75651" lon="1.55481">
        <ele>183.772211</ele>
        <time>2022-07-13T16:42:06.189Z</time>
      </trkpt>
      <trkpt lat="43.75692" lon="1.55451">
        <ele>183.633406</ele>
        <time>2022-07-13T16:42:11.532Z</time>
      </trkpt>
      <trkpt lat="43.75606" lon="1.55308">
        <ele>174.149829</ele>
        <time>2022-07-13T16:42:35.587Z</time>
      </trkpt>
      <trkpt lat="43.75579" lon="1.55261">
        <ele>170.989867</ele>
        <time>2022-07-13T16:42:43.189Z</time>
      </trkpt>
      <trkpt lat="43.7556" lon="1.55215">
        <ele>168.977611</ele>
        <time>2022-07-13T16:42:49.987Z</time>
      </trkpt>
      <trkpt lat="43.75553" lon="1.55145">
        <ele>166.551987</ele>
        <time>2022-07-13T16:42:59.243Z</time>
      </trkpt>
      <trkpt lat="43.75491" lon="1.55034">
        <ele>161.994073</ele>
        <time>2022-07-13T16:43:20.334Z</time>
      </trkpt>
      <trkpt lat="43.75516" lon="1.55003">
        <ele>162.866071</ele>
        <time>2022-07-13T16:43:25.673Z</time>
      </trkpt>
      <trkpt lat="43.75483" lon="1.5493">
        <ele>164.493763</ele>
        <time>2022-07-13T16:43:41.583Z</time>
      </trkpt>
      <trkpt lat="43.75466" lon="1.54859">
        <ele>165.916274</ele>
        <time>2022-07-13T16:43:56.726Z</time>
      </trkpt>
      <trkpt lat="43.75423" lon="1.5478">
        <ele>168.904849</ele>
        <time>2022-07-13T16:44:18.601Z</time>
      </trkpt>
      <trkpt lat="43.75363" lon="1.54729">
        <ele>172.525287</ele>
        <time>2022-07-13T16:44:39.518Z</time>
      </trkpt>
      <trkpt lat="43.75309" lon="1.54608">
        <ele>176.334371</ele>
        <time>2022-07-13T16:45:08.100Z</time>
      </trkpt>
      <trkpt lat="43.75289" lon="1.54471">
        <ele>177.511361</ele>
        <time>2022-07-13T16:45:33.446Z</time>
      </trkpt>
      <trkpt lat="43.7529" lon="1.54449">
        <ele>177.6919</ele>
        <time>2022-07-13T16:45:36.969Z</time>
      </trkpt>
      <trkpt lat="43.75342" lon="1.54324">
        <ele>176.856768</ele>
        <time>2022-07-13T16:45:59.644Z</time>
      </trkpt>
      <trkpt lat="43.75359" lon="1.54265">
        <ele>176.192719</ele>
        <time>2022-07-13T16:46:09.365Z</time>
      </trkpt>
      <trkpt lat="43.7532" lon="1.54215">
        <ele>175.436369</ele>
        <time>2022-07-13T16:46:21.970Z</time>
      </trkpt>
      <trkpt lat="43.7531" lon="1.54194">
        <ele>175.991256</ele>
        <time>2022-07-13T16:46:26.385Z</time>
      </trkpt>
      <trkpt lat="43.75294" lon="1.54152">
        <ele>177.220827</ele>
        <time>2022-07-13T16:46:34.917Z</time>
      </trkpt>
      <trkpt lat="43.75282" lon="1.54097">
        <ele>178.706141</ele>
        <time>2022-07-13T16:46:45.673Z</time>
      </trkpt>
      <trkpt lat="43.75287" lon="1.54044">
        <ele>180.090619</ele>
        <time>2022-07-13T16:46:56.638Z</time>
      </trkpt>
      <trkpt lat="43.75279" lon="1.53985">
        <ele>181.629584</ele>
        <time>2022-07-13T16:47:09.806Z</time>
      </trkpt>
      <trkpt lat="43.75272" lon="1.53962">
        <ele>182.915852</ele>
        <time>2022-07-13T16:47:15.476Z</time>
      </trkpt>
      <trkpt lat="43.75233" lon="1.53887">
        <ele>188.918346</ele>
        <time>2022-07-13T16:47:39.004Z</time>
      </trkpt>
      <trkpt lat="43.75132" lon="1.53791">
        <ele>199.819606</ele>
        <time>2022-07-13T16:48:25.449Z</time>
      </trkpt>
      <trkpt lat="43.75024" lon="1.53659">
        <ele>212.099773</ele>
        <time>2022-07-13T16:49:16.293Z</time>
      </trkpt>
      <trkpt lat="43.74997" lon="1.53617">
        <ele>214.139761</ele>
        <time>2022-07-13T16:49:28.964Z</time>
      </trkpt>
      <trkpt lat="43.74974" lon="1.53549">
        <ele>215.798622</ele>
        <time>2022-07-13T16:49:43.941Z</time>
      </trkpt>
      <trkpt lat="43.74937" lon="1.53454">
        <ele>218.18486</ele>
        <time>2022-07-13T16:50:03.675Z</time>
      </trkpt>
      <trkpt lat="43.74921" lon="1.53486">
        <ele>218.712442</ele>
        <time>2022-07-13T16:50:07.772Z</time>
      </trkpt>
      <trkpt lat="43.74856" lon="1.53443">
        <ele>217.381566</ele>
        <time>2022-07-13T16:50:21.039Z</time>
      </trkpt>
      <trkpt lat="43.74857" lon="1.53387">
        <ele>216.645492</ele>
        <time>2022-07-13T16:50:28.129Z</time>
      </trkpt>
      <trkpt lat="43.74855" lon="1.5338">
        <ele>216.543172</ele>
        <time>2022-07-13T16:50:29.076Z</time>
      </trkpt>
      <trkpt lat="43.74836" lon="1.53369">
        <ele>216.162804</ele>
        <time>2022-07-13T16:50:32.348Z</time>
      </trkpt>
      <trkpt lat="43.74809" lon="1.53345">
        <ele>215.584197</ele>
        <time>2022-07-13T16:50:38.752Z</time>
      </trkpt>
      <trkpt lat="43.74796" lon="1.53344">
        <ele>215.052904</ele>
        <time>2022-07-13T16:50:41.433Z</time>
      </trkpt>
      <trkpt lat="43.7476" lon="1.53428">
        <ele>211.725589</ele>
        <time>2022-07-13T16:50:55.082Z</time>
      </trkpt>
      <trkpt lat="43.74768" lon="1.53442">
        <ele>211.105233</ele>
        <time>2022-07-13T16:50:57.614Z</time>
      </trkpt>
      <trkpt lat="43.74704" lon="1.53592">
        <ele>205.735218</ele>
        <time>2022-07-13T16:51:16.353Z</time>
      </trkpt>
      <trkpt lat="43.7467" lon="1.53587">
        <ele>204.597269</ele>
        <time>2022-07-13T16:51:23.008Z</time>
      </trkpt>
      <trkpt lat="43.74632" lon="1.53559">
        <ele>203.149007</ele>
        <time>2022-07-13T16:51:31.784Z</time>
      </trkpt>
      <trkpt lat="43.74561" lon="1.53521">
        <ele>200.788371</ele>
        <time>2022-07-13T16:51:48.772Z</time>
      </trkpt>
      <trkpt lat="43.74417" lon="1.53381">
        <ele>196.972153</ele>
        <time>2022-07-13T16:52:28.009Z</time>
      </trkpt>
      <trkpt lat="43.74263" lon="1.53292">
        <ele>190.014397</ele>
        <time>2022-07-13T16:53:00.597Z</time>
      </trkpt>
      <trkpt lat="43.74197" lon="1.53234">
        <ele>185.460116</ele>
        <time>2022-07-13T16:53:15.496Z</time>
      </trkpt>
      <trkpt lat="43.7412" lon="1.53222">
        <ele>180.904685</ele>
        <time>2022-07-13T16:53:30.088Z</time>
      </trkpt>
      <trkpt lat="43.74075" lon="1.53181">
        <ele>177.377173</ele>
        <time>2022-07-13T16:53:39.954Z</time>
      </trkpt>
      <trkpt lat="43.73827" lon="1.5311">
        <ele>160.233377</ele>
        <time>2022-07-13T16:54:25.548Z</time>
      </trkpt>
      <trkpt lat="43.73806" lon="1.53095">
        <ele>158.826832</ele>
        <time>2022-07-13T16:54:30.054Z</time>
      </trkpt>
      <trkpt lat="43.73766" lon="1.53045">
        <ele>155.549357</ele>
        <time>2022-07-13T16:54:40.701Z</time>
      </trkpt>
      <trkpt lat="43.73712" lon="1.53014">
        <ele>153.700411</ele>
        <time>2022-07-13T16:54:52.629Z</time>
      </trkpt>
      <trkpt lat="43.73597" lon="1.52966">
        <ele>149.9776</ele>
        <time>2022-07-13T16:55:18.134Z</time>
      </trkpt>
      <trkpt lat="43.73492" lon="1.52966">
        <ele>147.475874</ele>
        <time>2022-07-13T16:55:40.091Z</time>
      </trkpt>
      <trkpt lat="43.73433" lon="1.52946">
        <ele>146.039515</ele>
        <time>2022-07-13T16:55:47.951Z</time>
      </trkpt>
      <trkpt lat="43.73422" lon="1.52934">
        <ele>145.711281</ele>
        <time>2022-07-13T16:55:49.855Z</time>
      </trkpt>
      <trkpt lat="43.73386" lon="1.52861">
        <ele>145.330011</ele>
        <time>2022-07-13T16:55:58.868Z</time>
      </trkpt>
      <trkpt lat="43.73356" lon="1.52838">
        <ele>145.167075</ele>
        <time>2022-07-13T16:56:04.002Z</time>
      </trkpt>
      <trkpt lat="43.73348" lon="1.52832">
        <ele>145.12322</ele>
        <time>2022-07-13T16:56:05.467Z</time>
      </trkpt>
      <trkpt lat="43.73345" lon="1.52802">
        <ele>145.016719</ele>
        <time>2022-07-13T16:56:08.724Z</time>
      </trkpt>
      <trkpt lat="43.73344" lon="1.52793">
        <ele>144.987083</ele>
        <time>2022-07-13T16:56:09.671Z</time>
      </trkpt>
      <trkpt lat="43.73234" lon="1.52525">
        <ele>145.350337</ele>
        <time>2022-07-13T16:56:45.331Z</time>
      </trkpt>
      <trkpt lat="43.7323" lon="1.52501">
        <ele>145.294446</ele>
        <time>2022-07-13T16:56:48.199Z</time>
      </trkpt>
      <trkpt lat="43.73214" lon="1.52487">
        <ele>145.18317</ele>
        <time>2022-07-13T16:56:52.645Z</time>
      </trkpt>
      <trkpt lat="43.73184" lon="1.52435">
        <ele>144.891161</ele>
        <time>2022-07-13T16:57:04.260Z</time>
      </trkpt>
      <trkpt lat="43.73107" lon="1.52348">
        <ele>144.295037</ele>
        <time>2022-07-13T16:57:27.557Z</time>
      </trkpt>
      <trkpt lat="43.73023" lon="1.52232">
        <ele>143.160483</ele>
        <time>2022-07-13T16:57:55.375Z</time>
      </trkpt>
      <trkpt lat="43.73002" lon="1.52225">
        <ele>142.957029</ele>
        <time>2022-07-13T16:58:00.313Z</time>
      </trkpt>
      <trkpt lat="43.72968" lon="1.5224">
        <ele>142.612489</ele>
        <time>2022-07-13T16:58:08.757Z</time>
      </trkpt>
      <trkpt lat="43.72885" lon="1.52257">
        <ele>142.217162</ele>
        <time>2022-07-13T16:58:28.745Z</time>
      </trkpt>
      <trkpt lat="43.72856" lon="1.52251">
        <ele>142.086537</ele>
        <time>2022-07-13T16:58:35.853Z</time>
      </trkpt>
      <trkpt lat="43.72802" lon="1.52212">
        <ele>141.819033</ele>
        <time>2022-07-13T16:58:50.439Z</time>
      </trkpt>
      <trkpt lat="43.72776" lon="1.52163">
        <ele>141.49529</ele>
        <time>2022-07-13T16:59:00.999Z</time>
      </trkpt>
      <trkpt lat="43.7273" lon="1.52107">
        <ele>140.99193</ele>
        <time>2022-07-13T16:59:15.555Z</time>
      </trkpt>
      <trkpt lat="43.72639" lon="1.52006">
        <ele>139.685277</ele>
        <time>2022-07-13T16:59:42.566Z</time>
      </trkpt>
      <trkpt lat="43.72557" lon="1.51887">
        <ele>137.44563</ele>
        <time>2022-07-13T17:00:08.253Z</time>
      </trkpt>
      <trkpt lat="43.72438" lon="1.51783">
        <ele>135.182593</ele>
        <time>2022-07-13T17:00:39.398Z</time>
      </trkpt>
      <trkpt lat="43.72442" lon="1.51606">
        <ele>133.742804</ele>
        <time>2022-07-13T17:00:56.688Z</time>
      </trkpt>
      <trkpt lat="43.72474" lon="1.51531">
        <ele>133.331761</ele>
        <time>2022-07-13T17:01:05.717Z</time>
      </trkpt>
      <trkpt lat="43.72505" lon="1.51419">
        <ele>132.954317</ele>
        <time>2022-07-13T17:01:18.202Z</time>
      </trkpt>
      <trkpt lat="43.72531" lon="1.51394">
        <ele>132.948006</ele>
        <time>2022-07-13T17:01:22.863Z</time>
      </trkpt>
      <trkpt lat="43.72473" lon="1.51288">
        <ele>132.928819</ele>
        <time>2022-07-13T17:01:37.985Z</time>
      </trkpt>
      <trkpt lat="43.7246" lon="1.51266">
        <ele>132.924794</ele>
        <time>2022-07-13T17:01:41.235Z</time>
      </trkpt>
      <trkpt lat="43.72443" lon="1.51256">
        <ele>133.007859</ele>
        <time>2022-07-13T17:01:44.210Z</time>
      </trkpt>
      <trkpt lat="43.72439" lon="1.51231">
        <ele>133.102594</ele>
        <time>2022-07-13T17:01:47.176Z</time>
      </trkpt>
      <trkpt lat="43.72407" lon="1.51166">
        <ele>133.392977</ele>
        <time>2022-07-13T17:01:56.285Z</time>
      </trkpt>
      <trkpt lat="43.72397" lon="1.51146">
        <ele>133.481332</ele>
        <time>2022-07-13T17:01:59.100Z</time>
      </trkpt>
      <trkpt lat="43.72333" lon="1.5101">
        <ele>134.026326</ele>
        <time>2022-07-13T17:02:17.892Z</time>
      </trkpt>
      <trkpt lat="43.72293" lon="1.50932">
        <ele>134.297223</ele>
        <time>2022-07-13T17:02:28.982Z</time>
      </trkpt>
      <trkpt lat="43.72272" lon="1.50905">
        <ele>134.410248</ele>
        <time>2022-07-13T17:02:33.608Z</time>
      </trkpt>
      <trkpt lat="43.7219" lon="1.50825">
        <ele>134.892093</ele>
        <time>2022-07-13T17:02:49.686Z</time>
      </trkpt>
      <trkpt lat="43.72109" lon="1.50718">
        <ele>135.482875</ele>
        <time>2022-07-13T17:03:07.749Z</time>
      </trkpt>
      <trkpt lat="43.72022" lon="1.50644">
        <ele>136.507133</ele>
        <time>2022-07-13T17:03:24.701Z</time>
      </trkpt>
      <trkpt lat="43.71979" lon="1.506">
        <ele>137.051034</ele>
        <time>2022-07-13T17:03:33.901Z</time>
      </trkpt>
      <trkpt lat="43.71931" lon="1.50521">
        <ele>138.163896</ele>
        <time>2022-07-13T17:03:47.141Z</time>
      </trkpt>
      <trkpt lat="43.71917" lon="1.50505">
        <ele>138.488467</ele>
        <time>2022-07-13T17:03:50.509Z</time>
      </trkpt>
      <trkpt lat="43.71962" lon="1.50261">
        <ele>141.8385</ele>
        <time>2022-07-13T17:04:24.096Z</time>
      </trkpt>
      <trkpt lat="43.71908" lon="1.50266">
        <ele>142.894775</ele>
        <time>2022-07-13T17:04:34.388Z</time>
      </trkpt>
      <trkpt lat="43.71889" lon="1.50257">
        <ele>143.304192</ele>
        <time>2022-07-13T17:04:38.376Z</time>
      </trkpt>
      <trkpt lat="43.71755" lon="1.50068">
        <ele>146.772687</ele>
        <time>2022-07-13T17:05:14.354Z</time>
      </trkpt>
      <trkpt lat="43.71725" lon="1.50048">
        <ele>147.427624</ele>
        <time>2022-07-13T17:05:20.580Z</time>
      </trkpt>
      <trkpt lat="43.71673" lon="1.50028">
        <ele>148.895583</ele>
        <time>2022-07-13T17:05:30.820Z</time>
      </trkpt>
      <trkpt lat="43.71647" lon="1.50003">
        <ele>149.753558</ele>
        <time>2022-07-13T17:05:36.898Z</time>
      </trkpt>
      <trkpt lat="43.71639" lon="1.4998">
        <ele>150.270551</ele>
        <time>2022-07-13T17:05:40.577Z</time>
      </trkpt>
      <trkpt lat="43.71611" lon="1.49769">
        <ele>156.669771</ele>
        <time>2022-07-13T17:06:14.042Z</time>
      </trkpt>
      <trkpt lat="43.71596" lon="1.497">
        <ele>159.45418</ele>
        <time>2022-07-13T17:06:27.532Z</time>
      </trkpt>
      <trkpt lat="43.71598" lon="1.495">
        <ele>167.989644</ele>
        <time>2022-07-13T17:07:04.853Z</time>
      </trkpt>
      <trkpt lat="43.716" lon="1.49443">
        <ele>170.557038</ele>
        <time>2022-07-13T17:07:15.390Z</time>
      </trkpt>
      <trkpt lat="43.71595" lon="1.49414">
        <ele>171.878356</ele>
        <time>2022-07-13T17:07:20.595Z</time>
      </trkpt>
      <trkpt lat="43.7152" lon="1.49239">
        <ele>179.29126</ele>
        <time>2022-07-13T17:07:54.937Z</time>
      </trkpt>
      <trkpt lat="43.71486" lon="1.49171">
        <ele>182.004431</ele>
        <time>2022-07-13T17:08:08.415Z</time>
      </trkpt>
      <trkpt lat="43.71391" lon="1.49034">
        <ele>186.517547</ele>
        <time>2022-07-13T17:08:37.455Z</time>
      </trkpt>
      <trkpt lat="43.71372" lon="1.48993">
        <ele>187.544369</ele>
        <time>2022-07-13T17:08:44.096Z</time>
      </trkpt>
      <trkpt lat="43.71351" lon="1.48928">
        <ele>188.018965</ele>
        <time>2022-07-13T17:08:53.471Z</time>
      </trkpt>
      <trkpt lat="43.71276" lon="1.48783">
        <ele>189.162752</ele>
        <time>2022-07-13T17:09:15.049Z</time>
      </trkpt>
      <trkpt lat="43.71162" lon="1.48581">
        <ele>189.036681</ele>
        <time>2022-07-13T17:09:44.765Z</time>
      </trkpt>
      <trkpt lat="43.71151" lon="1.48576">
        <ele>188.934143</ele>
        <time>2022-07-13T17:09:46.467Z</time>
      </trkpt>
      <trkpt lat="43.71068" lon="1.48479">
        <ele>187.992798</ele>
        <time>2022-07-13T17:10:02.045Z</time>
      </trkpt>
      <trkpt lat="43.71026" lon="1.48429">
        <ele>187.506059</ele>
        <time>2022-07-13T17:10:09.874Z</time>
      </trkpt>
      <trkpt lat="43.71005" lon="1.48409">
        <ele>187.271496</ele>
        <time>2022-07-13T17:10:13.552Z</time>
      </trkpt>
      <trkpt lat="43.70926" lon="1.4833">
        <ele>186.394551</ele>
        <time>2022-07-13T17:10:36.455Z</time>
      </trkpt>
      <trkpt lat="43.70713" lon="1.48189">
        <ele>184.973624</ele>
        <time>2022-07-13T17:11:32.599Z</time>
      </trkpt>
      <trkpt lat="43.70673" lon="1.48156">
        <ele>184.982785</ele>
        <time>2022-07-13T17:11:43.702Z</time>
      </trkpt>
      <trkpt lat="43.70586" lon="1.48004">
        <ele>185.200324</ele>
        <time>2022-07-13T17:12:17.429Z</time>
      </trkpt>
      <trkpt lat="43.7048" lon="1.47767">
        <ele>188.685388</ele>
        <time>2022-07-13T17:13:08.807Z</time>
      </trkpt>
      <trkpt lat="43.70377" lon="1.47716">
        <ele>191.375962</ele>
        <time>2022-07-13T17:13:37.224Z</time>
      </trkpt>
      <trkpt lat="43.70289" lon="1.4767">
        <ele>193.585656</ele>
        <time>2022-07-13T17:13:56.194Z</time>
      </trkpt>
      <trkpt lat="43.7025" lon="1.47638">
        <ele>194.61747</ele>
        <time>2022-07-13T17:14:04.492Z</time>
      </trkpt>
      <trkpt lat="43.70244" lon="1.47659">
        <ele>194.977682</ele>
        <time>2022-07-13T17:14:08.213Z</time>
      </trkpt>
      <trkpt lat="43.70198" lon="1.47619">
        <ele>196.226876</ele>
        <time>2022-07-13T17:14:20.083Z</time>
      </trkpt>
      <trkpt lat="43.70191" lon="1.47602">
        <ele>196.592576</ele>
        <time>2022-07-13T17:14:23.318Z</time>
      </trkpt>
      <trkpt lat="43.70133" lon="1.47631">
        <ele>198.503378</ele>
        <time>2022-07-13T17:14:35.618Z</time>
      </trkpt>
      <trkpt lat="43.70109" lon="1.47629">
        <ele>199.232817</ele>
        <time>2022-07-13T17:14:40.859Z</time>
      </trkpt>
      <trkpt lat="43.70076" lon="1.47616">
        <ele>200.277773</ele>
        <time>2022-07-13T17:14:47.936Z</time>
      </trkpt>
      <trkpt lat="43.7003" lon="1.47617">
        <ele>201.683419</ele>
        <time>2022-07-13T17:14:57.346Z</time>
      </trkpt>
      <trkpt lat="43.69987" lon="1.47645">
        <ele>203.138957</ele>
        <time>2022-07-13T17:15:07.487Z</time>
      </trkpt>
      <trkpt lat="43.69887" lon="1.47775">
        <ele>207.345472</ele>
        <time>2022-07-13T17:15:35.908Z</time>
      </trkpt>
      <trkpt lat="43.69867" lon="1.478">
        <ele>207.778968</ele>
        <time>2022-07-13T17:15:40.974Z</time>
      </trkpt>
      <trkpt lat="43.69857" lon="1.47802">
        <ele>207.950434</ele>
        <time>2022-07-13T17:15:43.008Z</time>
      </trkpt>
      <trkpt lat="43.69762" lon="1.47834">
        <ele>209.541813</ele>
        <time>2022-07-13T17:16:01.257Z</time>
      </trkpt>
      <trkpt lat="43.69737" lon="1.47837">
        <ele>209.946461</ele>
        <time>2022-07-13T17:16:05.640Z</time>
      </trkpt>
      <trkpt lat="43.69708" lon="1.47826">
        <ele>210.244966</ele>
        <time>2022-07-13T17:16:10.778Z</time>
      </trkpt>
      <trkpt lat="43.69698" lon="1.47814">
        <ele>210.190899</ele>
        <time>2022-07-13T17:16:13.029Z</time>
      </trkpt>
      <trkpt lat="43.69655" lon="1.4777">
        <ele>209.974794</ele>
        <time>2022-07-13T17:16:21.582Z</time>
      </trkpt>
      <trkpt lat="43.69647" lon="1.47751">
        <ele>209.911617</ele>
        <time>2022-07-13T17:16:23.964Z</time>
      </trkpt>
      <trkpt lat="43.69599" lon="1.47638">
        <ele>209.490447</ele>
        <time>2022-07-13T17:16:36.612Z</time>
      </trkpt>
      <trkpt lat="43.69587" lon="1.47601">
        <ele>209.18236</ele>
        <time>2022-07-13T17:16:40.415Z</time>
      </trkpt>
      <trkpt lat="43.69584" lon="1.47578">
        <ele>209.012902</ele>
        <time>2022-07-13T17:16:42.559Z</time>
      </trkpt>
      <trkpt lat="43.69581" lon="1.47558">
        <ele>208.858634</ele>
        <time>2022-07-13T17:16:44.452Z</time>
      </trkpt>
      <trkpt lat="43.69573" lon="1.4754">
        <ele>208.6992</ele>
        <time>2022-07-13T17:16:46.592Z</time>
      </trkpt>
      <trkpt lat="43.69547" lon="1.47511">
        <ele>208.354422</ele>
        <time>2022-07-13T17:16:51.132Z</time>
      </trkpt>
      <trkpt lat="43.69541" lon="1.47505">
        <ele>208.282887</ele>
        <time>2022-07-13T17:16:52.079Z</time>
      </trkpt>
      <trkpt lat="43.69505" lon="1.47471">
        <ele>207.833128</ele>
        <time>2022-07-13T17:16:58.176Z</time>
      </trkpt>
      <trkpt lat="43.69502" lon="1.47462">
        <ele>207.754944</ele>
        <time>2022-07-13T17:16:59.174Z</time>
      </trkpt>
      <trkpt lat="43.69499" lon="1.47453">
        <ele>207.681126</ele>
        <time>2022-07-13T17:17:00.256Z</time>
      </trkpt>
      <trkpt lat="43.69502" lon="1.47418">
        <ele>207.378954</ele>
        <time>2022-07-13T17:17:03.884Z</time>
      </trkpt>
      <trkpt lat="43.69511" lon="1.47371">
        <ele>206.962299</ele>
        <time>2022-07-13T17:17:09.160Z</time>
      </trkpt>
      <trkpt lat="43.69551" lon="1.47193">
        <ele>205.001439</ele>
        <time>2022-07-13T17:17:26.807Z</time>
      </trkpt>
      <trkpt lat="43.69545" lon="1.47158">
        <ele>204.121166</ele>
        <time>2022-07-13T17:17:29.779Z</time>
      </trkpt>
      <trkpt lat="43.69531" lon="1.4714">
        <ele>203.458153</ele>
        <time>2022-07-13T17:17:32.025Z</time>
      </trkpt>
      <trkpt lat="43.69502" lon="1.47119">
        <ele>202.376355</ele>
        <time>2022-07-13T17:17:35.621Z</time>
      </trkpt>
      <trkpt lat="43.6942" lon="1.47051">
        <ele>198.809064</ele>
        <time>2022-07-13T17:17:46.330Z</time>
      </trkpt>
      <trkpt lat="43.69416" lon="1.47047">
        <ele>198.46351</ele>
        <time>2022-07-13T17:17:46.933Z</time>
      </trkpt>
      <trkpt lat="43.6941" lon="1.47041">
        <ele>197.984186</ele>
        <time>2022-07-13T17:17:47.777Z</time>
      </trkpt>
      <trkpt lat="43.69392" lon="1.47022">
        <ele>196.519304</ele>
        <time>2022-07-13T17:17:50.231Z</time>
      </trkpt>
      <trkpt lat="43.69373" lon="1.4699">
        <ele>194.578453</ele>
        <time>2022-07-13T17:17:53.373Z</time>
      </trkpt>
      <trkpt lat="43.69364" lon="1.4695">
        <ele>192.611515</ele>
        <time>2022-07-13T17:17:56.434Z</time>
      </trkpt>
      <trkpt lat="43.69366" lon="1.46845">
        <ele>187.60721</ele>
        <time>2022-07-13T17:18:03.894Z</time>
      </trkpt>
      <trkpt lat="43.6929" lon="1.46828">
        <ele>180.629913</ele>
        <time>2022-07-13T17:18:17.166Z</time>
      </trkpt>
      <trkpt lat="43.69266" lon="1.46819">
        <ele>178.352592</ele>
        <time>2022-07-13T17:18:21.433Z</time>
      </trkpt>
      <trkpt lat="43.69221" lon="1.46765">
        <ele>172.928993</ele>
        <time>2022-07-13T17:18:31.646Z</time>
      </trkpt>
      <trkpt lat="43.69218" lon="1.46757">
        <ele>172.335451</ele>
        <time>2022-07-13T17:18:32.756Z</time>
      </trkpt>
      <trkpt lat="43.69208" lon="1.46643">
        <ele>169.590693</ele>
        <time>2022-07-13T17:18:48.385Z</time>
      </trkpt>
      <trkpt lat="43.69142" lon="1.4664">
        <ele>167.878078</ele>
        <time>2022-07-13T17:19:04.257Z</time>
      </trkpt>
      <trkpt lat="43.6913" lon="1.46585">
        <ele>166.889092</ele>
        <time>2022-07-13T17:19:14.839Z</time>
      </trkpt>
      <trkpt lat="43.69119" lon="1.46581">
        <ele>167.031435</ele>
        <time>2022-07-13T17:19:17.717Z</time>
      </trkpt>
      <trkpt lat="43.69107" lon="1.46587">
        <ele>167.18786</ele>
        <time>2022-07-13T17:19:20.825Z</time>
      </trkpt>
      <trkpt lat="43.69103" lon="1.46589">
        <ele>167.2398</ele>
        <time>2022-07-13T17:19:21.876Z</time>
      </trkpt>
      <trkpt lat="43.69097" lon="1.46577">
        <ele>167.374882</ele>
        <time>2022-07-13T17:19:24.823Z</time>
      </trkpt>
      <trkpt lat="43.69076" lon="1.4658">
        <ele>167.639003</ele>
        <time>2022-07-13T17:19:30.132Z</time>
      </trkpt>
      <trkpt lat="43.69061" lon="1.46559">
        <ele>167.909847</ele>
        <time>2022-07-13T17:19:35.797Z</time>
      </trkpt>
      <trkpt lat="43.69069" lon="1.46534">
        <ele>168.15559</ele>
        <time>2022-07-13T17:19:40.739Z</time>
      </trkpt>
      <trkpt lat="43.69066" lon="1.46503">
        <ele>168.437559</ele>
        <time>2022-07-13T17:19:46.554Z</time>
      </trkpt>
      <trkpt lat="43.69038" lon="1.46453">
        <ele>169.004529</ele>
        <time>2022-07-13T17:19:57.933Z</time>
      </trkpt>
      <trkpt lat="43.69021" lon="1.46436">
        <ele>168.723719</ele>
        <time>2022-07-13T17:20:03.465Z</time>
      </trkpt>
      <trkpt lat="43.68979" lon="1.46417">
        <ele>167.45345</ele>
        <time>2022-07-13T17:20:12.703Z</time>
      </trkpt>
      <trkpt lat="43.68931" lon="1.46409">
        <ele>166.051113</ele>
        <time>2022-07-13T17:20:22.342Z</time>
      </trkpt>
      <trkpt lat="43.68879" lon="1.46389">
        <ele>164.484003</ele>
        <time>2022-07-13T17:20:33.207Z</time>
      </trkpt>
      <trkpt lat="43.68829" lon="1.46365">
        <ele>162.61642</ele>
        <time>2022-07-13T17:20:43.637Z</time>
      </trkpt>
      <trkpt lat="43.68778" lon="1.46358">
        <ele>160.622977</ele>
        <time>2022-07-13T17:20:53.798Z</time>
      </trkpt>
      <trkpt lat="43.68734" lon="1.46337">
        <ele>158.824194</ele>
        <time>2022-07-13T17:21:02.880Z</time>
      </trkpt>
      <trkpt lat="43.68691" lon="1.46325">
        <ele>157.117713</ele>
        <time>2022-07-13T17:21:11.676Z</time>
      </trkpt>
      <trkpt lat="43.68627" lon="1.46282">
        <ele>155.801096</ele>
        <time>2022-07-13T17:21:27.376Z</time>
      </trkpt>
      <trkpt lat="43.68605" lon="1.46279">
        <ele>155.427223</ele>
        <time>2022-07-13T17:21:32.448Z</time>
      </trkpt>
      <trkpt lat="43.68574" lon="1.46263">
        <ele>154.878135</ele>
        <time>2022-07-13T17:21:39.956Z</time>
      </trkpt>
      <trkpt lat="43.68555" lon="1.4627">
        <ele>154.53812</ele>
        <time>2022-07-13T17:21:44.599Z</time>
      </trkpt>
      <trkpt lat="43.68548" lon="1.46267">
        <ele>154.416948</ele>
        <time>2022-07-13T17:21:46.304Z</time>
      </trkpt>
      <trkpt lat="43.68494" lon="1.46272">
        <ele>153.778364</ele>
        <time>2022-07-13T17:21:59.057Z</time>
      </trkpt>
      <trkpt lat="43.68481" lon="1.46264">
        <ele>153.710555</ele>
        <time>2022-07-13T17:22:02.372Z</time>
      </trkpt>
      <trkpt lat="43.68462" lon="1.46235">
        <ele>153.573411</ele>
        <time>2022-07-13T17:22:09.129Z</time>
      </trkpt>
      <trkpt lat="43.68449" lon="1.46239">
        <ele>153.507334</ele>
        <time>2022-07-13T17:22:12.402Z</time>
      </trkpt>
      <trkpt lat="43.68432" lon="1.46263">
        <ele>153.391517</ele>
        <time>2022-07-13T17:22:18.143Z</time>
      </trkpt>
      <trkpt lat="43.68373" lon="1.46259">
        <ele>153.104954</ele>
        <time>2022-07-13T17:22:32.612Z</time>
      </trkpt>
      <trkpt lat="43.68352" lon="1.46233">
        <ele>152.835353</ele>
        <time>2022-07-13T17:22:39.447Z</time>
      </trkpt>
      <trkpt lat="43.6829" lon="1.46131">
        <ele>151.135788</ele>
        <time>2022-07-13T17:23:01.254Z</time>
      </trkpt>
      <trkpt lat="43.68283" lon="1.46127">
        <ele>151.002652</ele>
        <time>2022-07-13T17:23:03.132Z</time>
      </trkpt>
      <trkpt lat="43.6828" lon="1.46078">
        <ele>150.374774</ele>
        <time>2022-07-13T17:23:10.632Z</time>
      </trkpt>
      <trkpt lat="43.68278" lon="1.46046">
        <ele>149.957229</ele>
        <time>2022-07-13T17:23:15.342Z</time>
      </trkpt>
      <trkpt lat="43.68263" lon="1.45995">
        <ele>148.621533</ele>
        <time>2022-07-13T17:23:23.467Z</time>
      </trkpt>
      <trkpt lat="43.6827" lon="1.45896">
        <ele>145.918427</ele>
        <time>2022-07-13T17:23:37.814Z</time>
      </trkpt>
      <trkpt lat="43.68279" lon="1.45666">
        <ele>140.688973</ele>
        <time>2022-07-13T17:24:11.507Z</time>
      </trkpt>
      <trkpt lat="43.6826" lon="1.45554">
        <ele>138.498878</ele>
        <time>2022-07-13T17:24:29.948Z</time>
      </trkpt>
      <trkpt lat="43.68219" lon="1.45412">
        <ele>137.590094</ele>
        <time>2022-07-13T17:24:56.180Z</time>
      </trkpt>
      <trkpt lat="43.68196" lon="1.45338">
        <ele>137.170912</ele>
        <time>2022-07-13T17:25:04.916Z</time>
      </trkpt>
      <trkpt lat="43.68161" lon="1.45195">
        <ele>136.908314</ele>
        <time>2022-07-13T17:25:22.374Z</time>
      </trkpt>
      <trkpt lat="43.68089" lon="1.45262">
        <ele>136.775195</ele>
        <time>2022-07-13T17:25:35.320Z</time>
      </trkpt>
      <trkpt lat="43.68068" lon="1.45281">
        <ele>136.671341</ele>
        <time>2022-07-13T17:25:39.146Z</time>
      </trkpt>
      <trkpt lat="43.68059" lon="1.45289">
        <ele>136.628654</ele>
        <time>2022-07-13T17:25:40.649Z</time>
      </trkpt>
      <trkpt lat="43.68037" lon="1.45309">
        <ele>136.519482</ele>
        <time>2022-07-13T17:25:44.585Z</time>
      </trkpt>
      <trkpt lat="43.68013" lon="1.45327">
        <ele>136.405495</ele>
        <time>2022-07-13T17:25:48.694Z</time>
      </trkpt>
      <trkpt lat="43.67976" lon="1.45347">
        <ele>136.243518</ele>
        <time>2022-07-13T17:25:54.483Z</time>
      </trkpt>
      <trkpt lat="43.67967" lon="1.45343">
        <ele>136.203968</ele>
        <time>2022-07-13T17:25:55.820Z</time>
      </trkpt>
      <trkpt lat="43.67964" lon="1.45357">
        <ele>136.159293</ele>
        <time>2022-07-13T17:25:57.363Z</time>
      </trkpt>
      <trkpt lat="43.67947" lon="1.45372">
        <ele>136.072327</ele>
        <time>2022-07-13T17:26:00.291Z</time>
      </trkpt>
      <trkpt lat="43.67923" lon="1.45325">
        <ele>135.794953</ele>
        <time>2022-07-13T17:26:07.847Z</time>
      </trkpt>
      <trkpt lat="43.6786" lon="1.45341">
        <ele>135.316843</ele>
        <time>2022-07-13T17:26:19.470Z</time>
      </trkpt>
      <trkpt lat="43.67847" lon="1.45321">
        <ele>135.168778</ele>
        <time>2022-07-13T17:26:23.111Z</time>
      </trkpt>
      <trkpt lat="43.67838" lon="1.45307">
        <ele>135.06992</ele>
        <time>2022-07-13T17:26:25.600Z</time>
      </trkpt>
      <trkpt lat="43.67839" lon="1.45297">
        <ele>135.018731</ele>
        <time>2022-07-13T17:26:26.843Z</time>
      </trkpt>
      <trkpt lat="43.67762" lon="1.45217">
        <ele>134.53536</ele>
        <time>2022-07-13T17:26:49.957Z</time>
      </trkpt>
      <trkpt lat="43.67739" lon="1.45206">
        <ele>134.4675</ele>
        <time>2022-07-13T17:26:55.710Z</time>
      </trkpt>
      <trkpt lat="43.67737" lon="1.45206">
        <ele>134.461015</ele>
        <time>2022-07-13T17:26:56.069Z</time>
      </trkpt>
      <trkpt lat="43.67732" lon="1.45206">
        <ele>134.44687</ele>
        <time>2022-07-13T17:26:56.910Z</time>
      </trkpt>
      <trkpt lat="43.67723" lon="1.45226">
        <ele>134.400835</ele>
        <time>2022-07-13T17:26:59.312Z</time>
      </trkpt>
      <trkpt lat="43.67715" lon="1.45254">
        <ele>134.338607</ele>
        <time>2022-07-13T17:27:02.853Z</time>
      </trkpt>
      <trkpt lat="43.67691" lon="1.45264">
        <ele>134.267053</ele>
        <time>2022-07-13T17:27:06.747Z</time>
      </trkpt>
      <trkpt lat="43.67675" lon="1.45274">
        <ele>134.217821</ele>
        <time>2022-07-13T17:27:09.541Z</time>
      </trkpt>
      <trkpt lat="43.67649" lon="1.45274">
        <ele>134.136863</ele>
        <time>2022-07-13T17:27:13.713Z</time>
      </trkpt>
      <trkpt lat="43.67609" lon="1.45273">
        <ele>133.998217</ele>
        <time>2022-07-13T17:27:20.003Z</time>
      </trkpt>
      <trkpt lat="43.67545" lon="1.45105">
        <ele>133.53191</ele>
        <time>2022-07-13T17:27:40.841Z</time>
      </trkpt>
      <trkpt lat="43.67506" lon="1.45009">
        <ele>133.403353</ele>
        <time>2022-07-13T17:27:53.101Z</time>
      </trkpt>
      <trkpt lat="43.67395" lon="1.45092">
        <ele>133.350459</ele>
        <time>2022-07-13T17:28:13.358Z</time>
      </trkpt>
      <trkpt lat="43.67389" lon="1.45096">
        <ele>133.367718</ele>
        <time>2022-07-13T17:28:14.348Z</time>
      </trkpt>
      <trkpt lat="43.67386" lon="1.45087">
        <ele>133.389714</ele>
        <time>2022-07-13T17:28:15.582Z</time>
      </trkpt>
      <trkpt lat="43.67367" lon="1.45034">
        <ele>133.512242</ele>
        <time>2022-07-13T17:28:22.689Z</time>
      </trkpt>
      <trkpt lat="43.67335" lon="1.45023">
        <ele>133.606979</ele>
        <time>2022-07-13T17:28:28.180Z</time>
      </trkpt>
      <trkpt lat="43.67247" lon="1.45094">
        <ele>133.583043</ele>
        <time>2022-07-13T17:28:44.541Z</time>
      </trkpt>
      <trkpt lat="43.67245" lon="1.45087">
        <ele>133.559321</ele>
        <time>2022-07-13T17:28:45.281Z</time>
      </trkpt>
      <trkpt lat="43.67225" lon="1.45102">
        <ele>133.466302</ele>
        <time>2022-07-13T17:28:48.918Z</time>
      </trkpt>
      <trkpt lat="43.67219" lon="1.45094">
        <ele>133.430258</ele>
        <time>2022-07-13T17:28:50.159Z</time>
      </trkpt>
      <trkpt lat="43.67213" lon="1.45095">
        <ele>133.404486</ele>
        <time>2022-07-13T17:28:50.845Z</time>
      </trkpt>
      <trkpt lat="43.67208" lon="1.45104">
        <ele>133.36903</ele>
        <time>2022-07-13T17:28:52.207Z</time>
      </trkpt>
      <trkpt lat="43.67209" lon="1.45112">
        <ele>133.34436</ele>
        <time>2022-07-13T17:28:53.146Z</time>
      </trkpt>
      <trkpt lat="43.67195" lon="1.45124">
        <ele>133.276906</ele>
        <time>2022-07-13T17:28:55.628Z</time>
      </trkpt>
      <trkpt lat="43.67195" lon="1.45131">
        <ele>133.255327</ele>
        <time>2022-07-13T17:28:56.236Z</time>
      </trkpt>
      <trkpt lat="43.67155" lon="1.45156">
        <ele>133.072174</ele>
        <time>2022-07-13T17:29:02.725Z</time>
      </trkpt>
      <trkpt lat="43.67143" lon="1.45133">
        <ele>132.9468</ele>
        <time>2022-07-13T17:29:05.888Z</time>
      </trkpt>
      <trkpt lat="43.67109" lon="1.45152">
        <ele>132.577419</ele>
        <time>2022-07-13T17:29:11.169Z</time>
      </trkpt>
      <trkpt lat="43.67106" lon="1.45149">
        <ele>132.54225</ele>
        <time>2022-07-13T17:29:11.561Z</time>
      </trkpt>
      <trkpt lat="43.67083" lon="1.45164">
        <ele>132.284299</ele>
        <time>2022-07-13T17:29:17.693Z</time>
      </trkpt>
      <trkpt lat="43.67068" lon="1.45137">
        <ele>132.040143</ele>
        <time>2022-07-13T17:29:23.249Z</time>
      </trkpt>
      <trkpt lat="43.6702" lon="1.4516">
        <ele>131.531764</ele>
        <time>2022-07-13T17:29:35.329Z</time>
      </trkpt>
      <trkpt lat="43.67005" lon="1.4512">
        <ele>131.221494</ele>
        <time>2022-07-13T17:29:42.844Z</time>
      </trkpt>
      <trkpt lat="43.66953" lon="1.45016">
        <ele>130.85866</ele>
        <time>2022-07-13T17:30:04.730Z</time>
      </trkpt>
      <trkpt lat="43.6693" lon="1.44953">
        <ele>130.65637</ele>
        <time>2022-07-13T17:30:16.985Z</time>
      </trkpt>
      <trkpt lat="43.66905" lon="1.44936">
        <ele>130.546115</ele>
        <time>2022-07-13T17:30:23.671Z</time>
      </trkpt>
      <trkpt lat="43.66836" lon="1.4492">
        <ele>130.564148</ele>
        <time>2022-07-13T17:30:40.387Z</time>
      </trkpt>
      <trkpt lat="43.66801" lon="1.44905">
        <ele>130.592662</ele>
        <time>2022-07-13T17:30:49.282Z</time>
      </trkpt>
      <trkpt lat="43.66771" lon="1.44882">
        <ele>130.619209</ele>
        <time>2022-07-13T17:30:57.607Z</time>
      </trkpt>
      <trkpt lat="43.66762" lon="1.44867">
        <ele>130.629976</ele>
        <time>2022-07-13T17:31:00.991Z</time>
      </trkpt>
      <trkpt lat="43.66754" lon="1.44825">
        <ele>130.654189</ele>
        <time>2022-07-13T17:31:08.575Z</time>
      </trkpt>
      <trkpt lat="43.66733" lon="1.44817">
        <ele>130.716056</ele>
        <time>2022-07-13T17:31:13.864Z</time>
      </trkpt>
      <trkpt lat="43.66693" lon="1.44852">
        <ele>130.854906</ele>
        <time>2022-07-13T17:31:25.408Z</time>
      </trkpt>
      <trkpt lat="43.66671" lon="1.44859">
        <ele>130.918548</ele>
        <time>2022-07-13T17:31:30.717Z</time>
      </trkpt>
      <trkpt lat="43.66638" lon="1.44853">
        <ele>131.017291</ele>
        <time>2022-07-13T17:31:38.964Z</time>
      </trkpt>
      <trkpt lat="43.66551" lon="1.44731">
        <ele>131.630452</ele>
        <time>2022-07-13T17:32:09.420Z</time>
      </trkpt>
      <trkpt lat="43.66515" lon="1.44708">
        <ele>131.896495</ele>
        <time>2022-07-13T17:32:19.416Z</time>
      </trkpt>
      <trkpt lat="43.66467" lon="1.44826">
        <ele>132.526641</ele>
        <time>2022-07-13T17:32:43.707Z</time>
      </trkpt>
      <trkpt lat="43.66437" lon="1.44919">
        <ele>132.965165</ele>
        <time>2022-07-13T17:33:01.966Z</time>
      </trkpt>
      <trkpt lat="43.6641" lon="1.45004">
        <ele>133.364132</ele>
        <time>2022-07-13T17:33:18.482Z</time>
      </trkpt>
      <trkpt lat="43.66397" lon="1.45014">
        <ele>133.4535</ele>
        <time>2022-07-13T17:33:22.199Z</time>
      </trkpt>
      <trkpt lat="43.66394" lon="1.45052">
        <ele>133.597766</ele>
        <time>2022-07-13T17:33:29.046Z</time>
      </trkpt>
      <trkpt lat="43.66378" lon="1.45104">
        <ele>133.809845</ele>
        <time>2022-07-13T17:33:38.962Z</time>
      </trkpt>
      <trkpt lat="43.66366" lon="1.4512">
        <ele>133.896343</ele>
        <time>2022-07-13T17:33:43.031Z</time>
      </trkpt>
      <trkpt lat="43.6635" lon="1.45167">
        <ele>134.089714</ele>
        <time>2022-07-13T17:33:52.237Z</time>
      </trkpt>
      <trkpt lat="43.66324" lon="1.4519">
        <ele>134.248144</ele>
        <time>2022-07-13T17:33:59.809Z</time>
      </trkpt>
      <trkpt lat="43.66316" lon="1.45204">
        <ele>134.316585</ele>
        <time>2022-07-13T17:34:03.133Z</time>
      </trkpt>
      <trkpt lat="43.66308" lon="1.45223">
        <ele>134.406405</ele>
        <time>2022-07-13T17:34:07.064Z</time>
      </trkpt>
      <trkpt lat="43.66286" lon="1.45243">
        <ele>134.585085</ele>
        <time>2022-07-13T17:34:13.601Z</time>
      </trkpt>
      <trkpt lat="43.6628" lon="1.45255">
        <ele>134.65519</ele>
        <time>2022-07-13T17:34:16.107Z</time>
      </trkpt>
      <trkpt lat="43.66246" lon="1.45257">
        <ele>134.888889</ele>
        <time>2022-07-13T17:34:24.612Z</time>
      </trkpt>
      <trkpt lat="43.66183" lon="1.45279">
        <ele>135.331486</ele>
        <time>2022-07-13T17:34:40.700Z</time>
      </trkpt>
      <trkpt lat="43.66158" lon="1.45237">
        <ele>135.599573</ele>
        <time>2022-07-13T17:34:47.244Z</time>
      </trkpt>
      <trkpt lat="43.66138" lon="1.45209">
        <ele>135.644637</ele>
        <time>2022-07-13T17:34:52.014Z</time>
      </trkpt>
      <trkpt lat="43.66122" lon="1.452">
        <ele>135.670056</ele>
        <time>2022-07-13T17:34:54.896Z</time>
      </trkpt>
      <trkpt lat="43.661" lon="1.45201">
        <ele>135.702065</ele>
        <time>2022-07-13T17:34:58.398Z</time>
      </trkpt>
      <trkpt lat="43.66093" lon="1.45195">
        <ele>135.714205</ele>
        <time>2022-07-13T17:34:59.731Z</time>
      </trkpt>
      <trkpt lat="43.66015" lon="1.45196">
        <ele>135.829024</ele>
        <time>2022-07-13T17:35:12.260Z</time>
      </trkpt>
      <trkpt lat="43.65949" lon="1.45198">
        <ele>135.803021</ele>
        <time>2022-07-13T17:35:22.610Z</time>
      </trkpt>
      <trkpt lat="43.65944" lon="1.45198">
        <ele>135.794587</ele>
        <time>2022-07-13T17:35:23.414Z</time>
      </trkpt>
      <trkpt lat="43.65944" lon="1.45209">
        <ele>135.781305</ele>
        <time>2022-07-13T17:35:24.699Z</time>
      </trkpt>
      <trkpt lat="43.65946" lon="1.45258">
        <ele>135.722748</ele>
        <time>2022-07-13T17:35:30.033Z</time>
      </trkpt>
      <trkpt lat="43.65946" lon="1.45284">
        <ele>135.691881</ele>
        <time>2022-07-13T17:35:32.801Z</time>
      </trkpt>
      <trkpt lat="43.65907" lon="1.45239">
        <ele>135.607573</ele>
        <time>2022-07-13T17:35:40.887Z</time>
      </trkpt>
      <trkpt lat="43.65822" lon="1.45363">
        <ele>135.570407</ele>
        <time>2022-07-13T17:36:00.303Z</time>
      </trkpt>
      <trkpt lat="43.65758" lon="1.45279">
        <ele>135.570407</ele>
        <time>2022-07-13T17:36:14.364Z</time>
      </trkpt>
      <trkpt lat="43.6575" lon="1.45288">
        <ele>135.570407</ele>
        <time>2022-07-13T17:36:16.070Z</time>
      </trkpt>
      <trkpt lat="43.65728" lon="1.45318">
        <ele>135.570407</ele>
        <time>2022-07-13T17:36:21.017Z</time>
      </trkpt>
    </trkseg>
  </trk>
</gpx>